FBU225R LFPO-KEWR
Flight info
| Callsign | FBU225R |
|---|---|
| Flight time | 7h 15m |
| Altitude | 38000 |
| Route | LGL UN502 JSY DCT LIZAD DCT ARKIL DCT LIMRI/M084F390 DCT 53N020W 53N030W 53N040W 52N050W DCT TUDEP/N0493F400 N530A MIILS DCT CBIRD DCT HANAA FLOSI4 |
| Aircraft | A359/H-SDE2E3GHIJ3J4J5LM1ORWXY/LB1D1 |
Departure
| Time | 2026-05-05 02:28 |
|---|---|
| Airport | Paris-Orly Airport (LFPO) |
Arrival
| Time | 2026-05-05 09:44 |
|---|---|
| Airport | Newark Liberty International Airport (KEWR) |
| Time | Latitude | Longitude | Altitude | Speed | Heading |
|---|---|---|---|---|---|
| 2026-05-05 01:56 | 48.72736 | 2.37118 | 301 ft | 0 kts | 343° |
| 2026-05-05 02:19 | 48.72731 | 2.37120 | 302 ft | 2 kts | 339° |
| 2026-05-05 02:19 | 48.72720 | 2.37128 | 300 ft | 2 kts | 328° |
| 2026-05-05 02:20 | 48.72715 | 2.37134 | 302 ft | 2 kts | 317° |
| 2026-05-05 02:20 | 48.72708 | 2.37145 | 301 ft | 1 kts | 300° |
| 2026-05-05 02:20 | 48.72703 | 2.37159 | 301 ft | 2 kts | 282° |
| 2026-05-05 02:20 | 48.72702 | 2.37175 | 302 ft | 2 kts | 268° |
| 2026-05-05 02:21 | 48.72703 | 2.37192 | 301 ft | 1 kts | 260° |
| 2026-05-05 02:21 | 48.72704 | 2.37204 | 300 ft | 1 kts | 256° |
| 2026-05-05 02:21 | 48.72706 | 2.37212 | 300 ft | 1 kts | 255° |
| 2026-05-05 02:21 | 48.72707 | 2.37220 | 300 ft | 1 kts | 253° |
| 2026-05-05 02:22 | 48.72709 | 2.37228 | 300 ft | 1 kts | 253° |
| 2026-05-05 02:22 | 48.72709 | 2.37232 | 302 ft | 0 kts | 252° |
| 2026-05-05 02:24 | 48.72701 | 2.37184 | 301 ft | 7 kts | 256° |
| 2026-05-05 02:25 | 48.72684 | 2.37091 | 297 ft | 13 kts | 253° |
| 2026-05-05 02:25 | 48.72651 | 2.36931 | 300 ft | 20 kts | 252° |
| 2026-05-05 02:25 | 48.72599 | 2.36705 | 302 ft | 26 kts | 251° |
| 2026-05-05 02:25 | 48.72543 | 2.36417 | 298 ft | 31 kts | 255° |
| 2026-05-05 02:26 | 48.72474 | 2.36106 | 302 ft | 23 kts | 226° |
| 2026-05-05 02:26 | 48.72365 | 2.35901 | 302 ft | 27 kts | 249° |
| 2026-05-05 02:26 | 48.72290 | 2.35625 | 301 ft | 20 kts | 224° |
| 2026-05-05 02:26 | 48.72181 | 2.35597 | 300 ft | 18 kts | 173° |
| 2026-05-05 02:27 | 48.72046 | 2.35711 | 300 ft | 27 kts | 130° |
| 2026-05-05 02:27 | 48.71972 | 2.36012 | 301 ft | 34 kts | 82° |
| 2026-05-05 02:27 | 48.72048 | 2.36440 | 302 ft | 62 kts | 74° |
| 2026-05-05 02:27 | 48.72222 | 2.37377 | 299 ft | 121 kts | 74° |
| 2026-05-05 02:28 | 48.72496 | 2.38847 | 319 ft | 169 kts | 73° |
| 2026-05-05 02:28 | 48.72832 | 2.40580 | 881 ft | 169 kts | 74° |
| 2026-05-05 02:28 | 48.73129 | 2.42230 | 1686 ft | 159 kts | 75° |
| 2026-05-05 02:28 | 48.73379 | 2.43833 | 2186 ft | 162 kts | 77° |
| 2026-05-05 02:29 | 48.73612 | 2.45594 | 2534 ft | 177 kts | 79° |
| 2026-05-05 02:29 | 48.73837 | 2.47534 | 2820 ft | 197 kts | 81° |
| 2026-05-05 02:29 | 48.74008 | 2.49689 | 3055 ft | 220 kts | 84° |
| 2026-05-05 02:29 | 48.74146 | 2.52134 | 3358 ft | 243 kts | 85° |
| 2026-05-05 02:30 | 48.74253 | 2.54754 | 3788 ft | 258 kts | 89° |
| 2026-05-05 02:30 | 48.73933 | 2.57452 | 4383 ft | 264 kts | 115° |
| 2026-05-05 02:30 | 48.72755 | 2.59569 | 5073 ft | 267 kts | 147° |
| 2026-05-05 02:30 | 48.71001 | 2.60438 | 5778 ft | 269 kts | 179° |
| 2026-05-05 02:31 | 48.69213 | 2.59802 | 6489 ft | 271 kts | 210° |
| 2026-05-05 02:31 | 48.67878 | 2.57823 | 7228 ft | 273 kts | 241° |
| 2026-05-05 02:31 | 48.67347 | 2.55064 | 8006 ft | 275 kts | 263° |
| 2026-05-05 02:31 | 48.67178 | 2.52155 | 8779 ft | 278 kts | 266° |
| 2026-05-05 02:32 | 48.67034 | 2.49229 | 9539 ft | 282 kts | 265° |
| 2026-05-05 02:32 | 48.66873 | 2.46243 | 10274 ft | 287 kts | 265° |
| 2026-05-05 02:32 | 48.66694 | 2.43174 | 10652 ft | 306 kts | 265° |
| 2026-05-05 02:32 | 48.66354 | 2.39878 | 10974 ft | 325 kts | 254° |
| 2026-05-05 02:33 | 48.65570 | 2.36558 | 11346 ft | 341 kts | 248° |
| 2026-05-05 02:33 | 48.64664 | 2.33261 | 11953 ft | 348 kts | 247° |
| 2026-05-05 02:33 | 48.63735 | 2.29833 | 12644 ft | 353 kts | 249° |
| 2026-05-05 02:33 | 48.63102 | 2.26209 | 13324 ft | 357 kts | 262° |
| 2026-05-05 02:34 | 48.63070 | 2.22475 | 14002 ft | 360 kts | 276° |
| 2026-05-05 02:34 | 48.63416 | 2.18680 | 14658 ft | 364 kts | 279° |
| 2026-05-05 02:34 | 48.63819 | 2.14905 | 15292 ft | 368 kts | 279° |
| 2026-05-05 02:34 | 48.64226 | 2.11046 | 15908 ft | 372 kts | 279° |
| 2026-05-05 02:35 | 48.64626 | 2.07167 | 16544 ft | 375 kts | 278° |
| 2026-05-05 02:35 | 48.65025 | 2.03243 | 17161 ft | 379 kts | 278° |
| 2026-05-05 02:35 | 48.65420 | 1.99326 | 17751 ft | 382 kts | 278° |
| 2026-05-05 02:35 | 48.65820 | 1.95336 | 18356 ft | 386 kts | 278° |
| 2026-05-05 02:36 | 48.66221 | 1.91307 | 18960 ft | 389 kts | 278° |
| 2026-05-05 02:36 | 48.66625 | 1.87229 | 19566 ft | 393 kts | 278° |
| 2026-05-05 02:36 | 48.67031 | 1.83118 | 20164 ft | 396 kts | 278° |
| 2026-05-05 02:36 | 48.67438 | 1.78973 | 20750 ft | 400 kts | 278° |
| 2026-05-05 02:37 | 48.67849 | 1.74783 | 21321 ft | 403 kts | 278° |
| 2026-05-05 02:37 | 48.68256 | 1.70608 | 21871 ft | 407 kts | 278° |
| 2026-05-05 02:37 | 48.68670 | 1.66344 | 22417 ft | 410 kts | 278° |
| 2026-05-05 02:37 | 48.69086 | 1.62042 | 22945 ft | 414 kts | 278° |
| 2026-05-05 02:38 | 48.69505 | 1.57703 | 23468 ft | 417 kts | 278° |
| 2026-05-05 02:38 | 48.69918 | 1.53398 | 23973 ft | 420 kts | 278° |
| 2026-05-05 02:38 | 48.70341 | 1.48991 | 24477 ft | 423 kts | 278° |
| 2026-05-05 02:38 | 48.70762 | 1.44559 | 24967 ft | 427 kts | 278° |
| 2026-05-05 02:39 | 48.71185 | 1.40078 | 25454 ft | 430 kts | 278° |
| 2026-05-05 02:39 | 48.71610 | 1.35565 | 25924 ft | 433 kts | 278° |
| 2026-05-05 02:39 | 48.72030 | 1.31086 | 26374 ft | 436 kts | 278° |
| 2026-05-05 02:39 | 48.72459 | 1.26495 | 26824 ft | 439 kts | 278° |
| 2026-05-05 02:40 | 48.72889 | 1.21877 | 27262 ft | 442 kts | 278° |
| 2026-05-05 02:40 | 48.73314 | 1.17284 | 27688 ft | 445 kts | 278° |
| 2026-05-05 02:40 | 48.73744 | 1.12618 | 28106 ft | 448 kts | 278° |
| 2026-05-05 02:40 | 48.74171 | 1.07963 | 28498 ft | 451 kts | 278° |
| 2026-05-05 02:41 | 48.74605 | 1.03221 | 28907 ft | 454 kts | 278° |
| 2026-05-05 02:41 | 48.75038 | 0.98453 | 29297 ft | 457 kts | 278° |
| 2026-05-05 02:41 | 48.75472 | 0.93663 | 29673 ft | 459 kts | 278° |
| 2026-05-05 02:41 | 48.75905 | 0.88848 | 30040 ft | 462 kts | 277° |
| 2026-05-05 02:42 | 48.76336 | 0.84046 | 30392 ft | 465 kts | 277° |
| 2026-05-05 02:42 | 48.76772 | 0.79155 | 30727 ft | 467 kts | 277° |
| 2026-05-05 02:42 | 48.77207 | 0.74253 | 31065 ft | 470 kts | 277° |
| 2026-05-05 02:42 | 48.77637 | 0.69390 | 31375 ft | 472 kts | 277° |
| 2026-05-05 02:43 | 48.78073 | 0.64432 | 31680 ft | 474 kts | 277° |
| 2026-05-05 02:43 | 48.78509 | 0.59444 | 31976 ft | 477 kts | 277° |
| 2026-05-05 02:43 | 48.78970 | 0.54441 | 32246 ft | 479 kts | 279° |
| 2026-05-05 02:43 | 48.79682 | 0.49487 | 32520 ft | 481 kts | 284° |
| 2026-05-05 02:44 | 48.80516 | 0.44604 | 32785 ft | 483 kts | 285° |
| 2026-05-05 02:44 | 48.81413 | 0.39665 | 33038 ft | 485 kts | 285° |
| 2026-05-05 02:44 | 48.82334 | 0.34703 | 33289 ft | 487 kts | 285° |
| 2026-05-05 02:44 | 48.83254 | 0.29736 | 33539 ft | 489 kts | 285° |
| 2026-05-05 02:45 | 48.84157 | 0.24811 | 33827 ft | 489 kts | 285° |
| 2026-05-05 02:45 | 48.85062 | 0.19821 | 34197 ft | 488 kts | 285° |
| 2026-05-05 02:45 | 48.85957 | 0.14842 | 34536 ft | 487 kts | 285° |
| 2026-05-05 02:45 | 48.86845 | 0.09866 | 34848 ft | 486 kts | 285° |
| 2026-05-05 02:46 | 48.87717 | 0.04953 | 35153 ft | 485 kts | 285° |
| 2026-05-05 02:46 | 48.88593 | -0.00001 | 35454 ft | 485 kts | 285° |
| 2026-05-05 02:46 | 48.89471 | -0.04978 | 35747 ft | 484 kts | 285° |
| 2026-05-05 02:46 | 48.90342 | -0.09926 | 36021 ft | 483 kts | 285° |
| 2026-05-05 02:47 | 48.91197 | -0.14797 | 36274 ft | 483 kts | 285° |
| 2026-05-05 02:47 | 48.92062 | -0.19733 | 36507 ft | 483 kts | 285° |
| 2026-05-05 02:47 | 48.92927 | -0.24685 | 36718 ft | 483 kts | 285° |
| 2026-05-05 02:47 | 48.93788 | -0.29634 | 36919 ft | 483 kts | 284° |
| 2026-05-05 02:48 | 48.94631 | -0.34585 | 37135 ft | 484 kts | 284° |
| 2026-05-05 02:48 | 48.95464 | -0.39549 | 37334 ft | 484 kts | 284° |
| 2026-05-05 02:48 | 48.96296 | -0.44533 | 37531 ft | 484 kts | 284° |
| 2026-05-05 02:48 | 48.97113 | -0.49436 | 37739 ft | 484 kts | 284° |
| 2026-05-05 02:49 | 48.97943 | -0.54422 | 37919 ft | 483 kts | 284° |
| 2026-05-05 02:49 | 48.99598 | -0.64370 | 38002 ft | 489 kts | 284° |
| 2026-05-05 02:50 | 49.01265 | -0.74430 | 38001 ft | 488 kts | 284° |
| 2026-05-05 02:50 | 49.02910 | -0.84417 | 38000 ft | 488 kts | 284° |
| 2026-05-05 02:51 | 49.04556 | -0.94469 | 38000 ft | 487 kts | 284° |
| 2026-05-05 02:51 | 49.06192 | -1.04522 | 38000 ft | 487 kts | 284° |
| 2026-05-05 02:52 | 49.07805 | -1.14494 | 38000 ft | 487 kts | 284° |
| 2026-05-05 02:52 | 49.09424 | -1.24499 | 38000 ft | 487 kts | 284° |
| 2026-05-05 02:53 | 49.11055 | -1.34567 | 38000 ft | 487 kts | 284° |
| 2026-05-05 02:53 | 49.12666 | -1.44577 | 38000 ft | 487 kts | 283° |
| 2026-05-05 02:54 | 49.14279 | -1.54666 | 38000 ft | 486 kts | 283° |
| 2026-05-05 02:54 | 49.15869 | -1.64672 | 38000 ft | 486 kts | 283° |
| 2026-05-05 02:55 | 49.17455 | -1.74709 | 38000 ft | 486 kts | 283° |
| 2026-05-05 02:55 | 49.19036 | -1.84781 | 38000 ft | 486 kts | 283° |
| 2026-05-05 02:56 | 49.20599 | -1.94801 | 38000 ft | 486 kts | 283° |
| 2026-05-05 02:56 | 49.22162 | -2.04882 | 38000 ft | 486 kts | 283° |
| 2026-05-05 02:57 | 49.23812 | -2.14861 | 38001 ft | 487 kts | 285° |
| 2026-05-05 02:57 | 49.25572 | -2.24900 | 38000 ft | 487 kts | 285° |
| 2026-05-05 02:58 | 49.27310 | -2.34935 | 38000 ft | 486 kts | 284° |
| 2026-05-05 02:58 | 49.29010 | -2.44930 | 38000 ft | 486 kts | 284° |
| 2026-05-05 02:59 | 49.30698 | -2.54966 | 38000 ft | 486 kts | 284° |
| 2026-05-05 02:59 | 49.32379 | -2.65017 | 38000 ft | 486 kts | 284° |
| 2026-05-05 03:00 | 49.34050 | -2.75065 | 38000 ft | 486 kts | 284° |
| 2026-05-05 03:00 | 49.35704 | -2.85067 | 38000 ft | 486 kts | 284° |
| 2026-05-05 03:01 | 49.37352 | -2.95089 | 38000 ft | 486 kts | 284° |
| 2026-05-05 03:01 | 49.39004 | -3.05199 | 38000 ft | 486 kts | 284° |
| 2026-05-05 03:02 | 49.40633 | -3.15223 | 38000 ft | 486 kts | 284° |
| 2026-05-05 03:02 | 49.42269 | -3.25352 | 38000 ft | 486 kts | 284° |
| 2026-05-05 03:03 | 49.43884 | -3.35416 | 38000 ft | 486 kts | 284° |
| 2026-05-05 03:03 | 49.45491 | -3.45489 | 38000 ft | 486 kts | 283° |
| 2026-05-05 03:04 | 49.46830 | -3.53926 | 38000 ft | 486 kts | 283° |
| 2026-05-05 03:04 | 49.48418 | -3.63992 | 38000 ft | 486 kts | 283° |
| 2026-05-05 03:05 | 49.50007 | -3.74128 | 38000 ft | 486 kts | 283° |
| 2026-05-05 03:05 | 49.51584 | -3.84249 | 38000 ft | 486 kts | 283° |
| 2026-05-05 03:06 | 49.53143 | -3.94320 | 38000 ft | 486 kts | 283° |
| 2026-05-05 03:06 | 49.54705 | -4.04473 | 38000 ft | 486 kts | 283° |
| 2026-05-05 03:07 | 49.56249 | -4.14572 | 38000 ft | 486 kts | 283° |
| 2026-05-05 03:07 | 49.57797 | -4.24760 | 38000 ft | 486 kts | 283° |
| 2026-05-05 03:08 | 49.59689 | -4.34703 | 38002 ft | 486 kts | 294° |
| 2026-05-05 03:08 | 49.62495 | -4.44220 | 38000 ft | 486 kts | 295° |
| 2026-05-05 03:09 | 49.65421 | -4.53575 | 38000 ft | 486 kts | 296° |
| 2026-05-05 03:09 | 49.68376 | -4.63000 | 38000 ft | 486 kts | 295° |
| 2026-05-05 03:10 | 49.71305 | -4.72436 | 38000 ft | 486 kts | 295° |
| 2026-05-05 03:10 | 49.74200 | -4.81832 | 38000 ft | 486 kts | 295° |
| 2026-05-05 03:11 | 49.77103 | -4.91303 | 38000 ft | 486 kts | 295° |
| 2026-05-05 03:11 | 49.79982 | -5.00731 | 38000 ft | 486 kts | 295° |
| 2026-05-05 03:12 | 49.82871 | -5.10224 | 38000 ft | 486 kts | 295° |
| 2026-05-05 03:12 | 49.85752 | -5.19725 | 38000 ft | 486 kts | 295° |
| 2026-05-05 03:13 | 49.88606 | -5.29178 | 38000 ft | 486 kts | 295° |
| 2026-05-05 03:13 | 49.91471 | -5.38701 | 38000 ft | 486 kts | 295° |
| 2026-05-05 03:14 | 49.94311 | -5.48179 | 38000 ft | 486 kts | 295° |
| 2026-05-05 03:14 | 49.97164 | -5.57738 | 38000 ft | 486 kts | 295° |
| 2026-05-05 03:15 | 49.99994 | -5.67257 | 38000 ft | 486 kts | 295° |
| 2026-05-05 03:15 | 50.02826 | -5.76821 | 38000 ft | 486 kts | 294° |
| 2026-05-05 03:16 | 50.05638 | -5.86353 | 38000 ft | 486 kts | 294° |
| 2026-05-05 03:16 | 50.08445 | -5.95907 | 38000 ft | 486 kts | 294° |
| 2026-05-05 03:17 | 50.11259 | -6.05524 | 38000 ft | 486 kts | 294° |
| 2026-05-05 03:17 | 50.14044 | -6.15079 | 38000 ft | 486 kts | 294° |
| 2026-05-05 03:18 | 50.16841 | -6.24715 | 38000 ft | 486 kts | 294° |
| 2026-05-05 03:18 | 50.19615 | -6.34307 | 38000 ft | 486 kts | 294° |
| 2026-05-05 03:19 | 50.23777 | -6.48774 | 38000 ft | 486 kts | 294° |
| 2026-05-05 03:19 | 50.26529 | -6.58390 | 38000 ft | 486 kts | 294° |
| 2026-05-05 03:20 | 50.29292 | -6.68082 | 38000 ft | 486 kts | 294° |
| 2026-05-05 03:20 | 50.32027 | -6.77715 | 38000 ft | 486 kts | 294° |
| 2026-05-05 03:21 | 50.34767 | -6.87404 | 38000 ft | 486 kts | 294° |
| 2026-05-05 03:21 | 50.37504 | -6.97125 | 38000 ft | 486 kts | 294° |
| 2026-05-05 03:22 | 50.40213 | -7.06782 | 38000 ft | 486 kts | 294° |
| 2026-05-05 03:22 | 50.42930 | -7.16512 | 38000 ft | 486 kts | 293° |
| 2026-05-05 03:23 | 50.45629 | -7.26213 | 38000 ft | 486 kts | 293° |
| 2026-05-05 03:23 | 50.48332 | -7.35972 | 38000 ft | 486 kts | 293° |
| 2026-05-05 03:24 | 50.51012 | -7.45689 | 38000 ft | 486 kts | 293° |
| 2026-05-05 03:24 | 50.53685 | -7.55418 | 38000 ft | 486 kts | 293° |
| 2026-05-05 03:25 | 50.56365 | -7.65215 | 38000 ft | 486 kts | 293° |
| 2026-05-05 03:25 | 50.59016 | -7.74946 | 38000 ft | 486 kts | 293° |
| 2026-05-05 03:26 | 50.61678 | -7.84757 | 38000 ft | 486 kts | 293° |
| 2026-05-05 03:26 | 50.64331 | -7.94579 | 38000 ft | 486 kts | 293° |
| 2026-05-05 03:27 | 50.66927 | -8.04375 | 38000 ft | 486 kts | 291° |
| 2026-05-05 03:27 | 50.69207 | -8.14435 | 38000 ft | 486 kts | 289° |
| 2026-05-05 03:28 | 50.71381 | -8.24487 | 38000 ft | 486 kts | 289° |
| 2026-05-05 03:28 | 50.73604 | -8.34577 | 38000 ft | 486 kts | 289° |
| 2026-05-05 03:29 | 50.75853 | -8.44659 | 38000 ft | 486 kts | 289° |
| 2026-05-05 03:29 | 50.78104 | -8.54754 | 38000 ft | 486 kts | 289° |
| 2026-05-05 03:30 | 50.80329 | -8.64789 | 38000 ft | 486 kts | 289° |
| 2026-05-05 03:30 | 50.82559 | -8.74900 | 38000 ft | 486 kts | 289° |
| 2026-05-05 03:31 | 50.84780 | -8.85027 | 38000 ft | 486 kts | 289° |
| 2026-05-05 03:31 | 50.86979 | -8.95100 | 38000 ft | 486 kts | 289° |
| 2026-05-05 03:32 | 50.89184 | -9.05251 | 38000 ft | 486 kts | 289° |
| 2026-05-05 03:32 | 50.91365 | -9.15342 | 38000 ft | 486 kts | 289° |
| 2026-05-05 03:33 | 50.93543 | -9.25471 | 38000 ft | 486 kts | 289° |
| 2026-05-05 03:33 | 50.95720 | -9.35641 | 38000 ft | 486 kts | 288° |
| 2026-05-05 03:34 | 50.97891 | -9.45834 | 38000 ft | 486 kts | 288° |
| 2026-05-05 03:34 | 51.00040 | -9.55979 | 38000 ft | 486 kts | 288° |
| 2026-05-05 03:35 | 51.02178 | -9.66118 | 38000 ft | 486 kts | 288° |
| 2026-05-05 03:35 | 51.04317 | -9.76317 | 38000 ft | 486 kts | 288° |
| 2026-05-05 03:36 | 51.06454 | -9.86558 | 38000 ft | 486 kts | 288° |
| 2026-05-05 03:36 | 51.08569 | -9.96743 | 38000 ft | 486 kts | 288° |
| 2026-05-05 03:37 | 51.10672 | -10.06927 | 38000 ft | 486 kts | 288° |
| 2026-05-05 03:37 | 51.12780 | -10.17183 | 38000 ft | 486 kts | 288° |
| 2026-05-05 03:38 | 51.14868 | -10.27393 | 38000 ft | 486 kts | 288° |
| 2026-05-05 03:38 | 51.16962 | -10.37689 | 38000 ft | 486 kts | 288° |
| 2026-05-05 03:39 | 51.19028 | -10.47904 | 38000 ft | 486 kts | 288° |
| 2026-05-05 03:39 | 51.21099 | -10.58190 | 38000 ft | 486 kts | 288° |
| 2026-05-05 03:40 | 51.23147 | -10.68421 | 38000 ft | 486 kts | 288° |
| 2026-05-05 03:40 | 51.25198 | -10.78718 | 38000 ft | 486 kts | 287° |
| 2026-05-05 03:41 | 51.27245 | -10.89050 | 38000 ft | 486 kts | 287° |
| 2026-05-05 03:41 | 51.29264 | -10.99296 | 38000 ft | 486 kts | 287° |
| 2026-05-05 03:42 | 51.31291 | -11.09635 | 38000 ft | 486 kts | 287° |
| 2026-05-05 03:42 | 51.33306 | -11.19968 | 38000 ft | 486 kts | 287° |
| 2026-05-05 03:43 | 51.35300 | -11.30254 | 38000 ft | 486 kts | 287° |
| 2026-05-05 03:43 | 51.37293 | -11.40586 | 38000 ft | 486 kts | 287° |
| 2026-05-05 03:44 | 51.39273 | -11.50906 | 38000 ft | 486 kts | 287° |
| 2026-05-05 03:44 | 51.41253 | -11.61288 | 38000 ft | 486 kts | 287° |
| 2026-05-05 03:45 | 51.43220 | -11.71652 | 38000 ft | 486 kts | 287° |
| 2026-05-05 03:45 | 51.45172 | -11.82001 | 38000 ft | 486 kts | 287° |
| 2026-05-05 03:46 | 51.47115 | -11.92356 | 38000 ft | 486 kts | 287° |
| 2026-05-05 03:46 | 51.49064 | -12.02796 | 38000 ft | 486 kts | 287° |
| 2026-05-05 03:47 | 51.50674 | -12.11468 | 38000 ft | 486 kts | 286° |
| 2026-05-05 03:47 | 51.52905 | -12.23556 | 38000 ft | 486 kts | 286° |
| 2026-05-05 03:48 | 51.54498 | -12.32233 | 38000 ft | 486 kts | 286° |
| 2026-05-05 03:48 | 51.56407 | -12.42688 | 38000 ft | 486 kts | 286° |
| 2026-05-05 03:49 | 51.58292 | -12.53070 | 38000 ft | 486 kts | 286° |
| 2026-05-05 03:49 | 51.60183 | -12.63542 | 38000 ft | 486 kts | 286° |
| 2026-05-05 03:50 | 51.62055 | -12.73970 | 38000 ft | 486 kts | 286° |
| 2026-05-05 03:50 | 51.63926 | -12.84457 | 38000 ft | 486 kts | 286° |
| 2026-05-05 03:51 | 51.65780 | -12.94906 | 38000 ft | 486 kts | 286° |
| 2026-05-05 03:51 | 51.67622 | -13.05348 | 38000 ft | 486 kts | 285° |
| 2026-05-05 03:52 | 51.69473 | -13.15901 | 38000 ft | 486 kts | 285° |
| 2026-05-05 03:52 | 51.71294 | -13.26346 | 38000 ft | 486 kts | 285° |
| 2026-05-05 03:53 | 51.73116 | -13.36862 | 38000 ft | 486 kts | 285° |
| 2026-05-05 03:53 | 51.74928 | -13.47377 | 38000 ft | 486 kts | 285° |
| 2026-05-05 03:54 | 51.76724 | -13.57865 | 38000 ft | 486 kts | 285° |
| 2026-05-05 03:54 | 51.78511 | -13.68366 | 38000 ft | 486 kts | 285° |
| 2026-05-05 03:55 | 51.80302 | -13.78950 | 38000 ft | 486 kts | 285° |
| 2026-05-05 03:55 | 51.82066 | -13.89439 | 38000 ft | 486 kts | 285° |
| 2026-05-05 03:56 | 51.83834 | -14.00018 | 38000 ft | 486 kts | 285° |
| 2026-05-05 03:56 | 51.85586 | -14.10565 | 38000 ft | 486 kts | 285° |
| 2026-05-05 03:57 | 51.87334 | -14.21153 | 38000 ft | 486 kts | 285° |
| 2026-05-05 03:57 | 51.89057 | -14.31656 | 38000 ft | 486 kts | 284° |
| 2026-05-05 03:58 | 51.90792 | -14.42297 | 38000 ft | 486 kts | 284° |
| 2026-05-05 03:58 | 51.92502 | -14.52847 | 38000 ft | 486 kts | 284° |
| 2026-05-05 03:59 | 51.94205 | -14.63426 | 38000 ft | 486 kts | 284° |
| 2026-05-05 03:59 | 51.95904 | -14.74045 | 38000 ft | 486 kts | 284° |
| 2026-05-05 04:00 | 51.97598 | -14.84702 | 38000 ft | 486 kts | 284° |
| 2026-05-05 04:00 | 51.99267 | -14.95268 | 38000 ft | 486 kts | 284° |
| 2026-05-05 04:01 | 52.01311 | -15.05742 | 38000 ft | 486 kts | 289° |
| 2026-05-05 04:01 | 52.03596 | -15.16033 | 38000 ft | 486 kts | 290° |
| 2026-05-05 04:02 | 52.05931 | -15.26408 | 38000 ft | 486 kts | 290° |
| 2026-05-05 04:02 | 52.08230 | -15.36685 | 38000 ft | 486 kts | 290° |
| 2026-05-05 04:03 | 52.10527 | -15.47039 | 38000 ft | 486 kts | 289° |
| 2026-05-05 04:03 | 52.12814 | -15.57414 | 38000 ft | 486 kts | 289° |
| 2026-05-05 04:04 | 52.15086 | -15.67778 | 38000 ft | 486 kts | 289° |
| 2026-05-05 04:04 | 52.17347 | -15.78136 | 38000 ft | 486 kts | 289° |
| 2026-05-05 04:05 | 52.19593 | -15.88481 | 38000 ft | 486 kts | 289° |
| 2026-05-05 04:05 | 52.21846 | -15.98908 | 38000 ft | 486 kts | 289° |
| 2026-05-05 04:06 | 52.24084 | -16.09321 | 38000 ft | 486 kts | 289° |
| 2026-05-05 04:06 | 52.26307 | -16.19713 | 38000 ft | 486 kts | 289° |
| 2026-05-05 04:07 | 52.28519 | -16.30113 | 38000 ft | 486 kts | 289° |
| 2026-05-05 04:07 | 52.30735 | -16.40582 | 38000 ft | 486 kts | 289° |
| 2026-05-05 04:08 | 52.32929 | -16.50996 | 38000 ft | 486 kts | 289° |
| 2026-05-05 04:08 | 52.35122 | -16.61469 | 38000 ft | 486 kts | 289° |
| 2026-05-05 04:09 | 52.37307 | -16.71950 | 38000 ft | 486 kts | 289° |
| 2026-05-05 04:09 | 52.39472 | -16.82393 | 38000 ft | 486 kts | 288° |
| 2026-05-05 04:10 | 52.41636 | -16.92887 | 38000 ft | 486 kts | 288° |
| 2026-05-05 04:10 | 52.43788 | -17.03377 | 38000 ft | 486 kts | 288° |
| 2026-05-05 04:11 | 52.45937 | -17.13909 | 38000 ft | 486 kts | 288° |
| 2026-05-05 04:11 | 52.48073 | -17.24434 | 38000 ft | 486 kts | 288° |
| 2026-05-05 04:12 | 52.50194 | -17.34941 | 38000 ft | 486 kts | 288° |
| 2026-05-05 04:12 | 52.52313 | -17.45491 | 38000 ft | 486 kts | 288° |
| 2026-05-05 04:13 | 52.54423 | -17.56055 | 38000 ft | 486 kts | 288° |
| 2026-05-05 04:13 | 52.56513 | -17.66580 | 38000 ft | 486 kts | 288° |
| 2026-05-05 04:14 | 52.58607 | -17.77177 | 38000 ft | 486 kts | 288° |
| 2026-05-05 04:14 | 52.60688 | -17.87770 | 38000 ft | 486 kts | 288° |
| 2026-05-05 04:15 | 52.62748 | -17.98311 | 38000 ft | 486 kts | 288° |
| 2026-05-05 04:15 | 52.64802 | -18.08877 | 38000 ft | 486 kts | 288° |
| 2026-05-05 04:16 | 52.66861 | -18.19532 | 38000 ft | 486 kts | 287° |
| 2026-05-05 04:16 | 52.68897 | -18.30127 | 38000 ft | 486 kts | 287° |
| 2026-05-05 04:17 | 52.70925 | -18.40739 | 38000 ft | 486 kts | 287° |
| 2026-05-05 04:17 | 52.72954 | -18.51417 | 38000 ft | 486 kts | 287° |
| 2026-05-05 04:18 | 52.74959 | -18.62023 | 38000 ft | 486 kts | 287° |
| 2026-05-05 04:18 | 52.76972 | -18.72737 | 38000 ft | 486 kts | 287° |
| 2026-05-05 04:19 | 52.78958 | -18.83369 | 38000 ft | 486 kts | 287° |
| 2026-05-05 04:19 | 52.80944 | -18.94057 | 38000 ft | 486 kts | 287° |
| 2026-05-05 04:20 | 52.82910 | -19.04705 | 38000 ft | 486 kts | 287° |
| 2026-05-05 04:20 | 52.84887 | -19.15467 | 38000 ft | 486 kts | 287° |
| 2026-05-05 04:21 | 52.86832 | -19.26120 | 38000 ft | 486 kts | 287° |
| 2026-05-05 04:21 | 52.88782 | -19.36862 | 38000 ft | 486 kts | 287° |
| 2026-05-05 04:22 | 52.90719 | -19.47597 | 38000 ft | 486 kts | 286° |
| 2026-05-05 04:22 | 52.92637 | -19.58292 | 38000 ft | 486 kts | 286° |
| 2026-05-05 04:23 | 52.94558 | -19.69065 | 38000 ft | 486 kts | 286° |
| 2026-05-05 04:23 | 52.96459 | -19.79789 | 38000 ft | 486 kts | 286° |
| 2026-05-05 04:24 | 52.98365 | -19.90603 | 38000 ft | 486 kts | 286° |
| 2026-05-05 04:25 | 53.00300 | -20.06996 | 38000 ft | 486 kts | 275° |
| 2026-05-05 04:25 | 53.00809 | -20.18203 | 38000 ft | 486 kts | 274° |
| 2026-05-05 04:26 | 53.01232 | -20.29437 | 38000 ft | 486 kts | 273° |
| 2026-05-05 04:26 | 53.01649 | -20.40603 | 38000 ft | 486 kts | 274° |
| 2026-05-05 04:27 | 53.02070 | -20.51774 | 38000 ft | 486 kts | 274° |
| 2026-05-05 04:27 | 53.02487 | -20.62984 | 38000 ft | 486 kts | 273° |
| 2026-05-05 04:28 | 53.02894 | -20.74171 | 38000 ft | 486 kts | 273° |
| 2026-05-05 04:28 | 53.03291 | -20.85407 | 38000 ft | 486 kts | 273° |
| 2026-05-05 04:29 | 53.03675 | -20.96583 | 38000 ft | 486 kts | 273° |
| 2026-05-05 04:29 | 53.04050 | -21.07816 | 38000 ft | 486 kts | 273° |
| 2026-05-05 04:30 | 53.04415 | -21.19063 | 38000 ft | 486 kts | 273° |
| 2026-05-05 04:30 | 53.04767 | -21.30237 | 38000 ft | 486 kts | 273° |
| 2026-05-05 04:31 | 53.05110 | -21.41435 | 38000 ft | 486 kts | 273° |
| 2026-05-05 04:31 | 53.05388 | -21.50786 | 38000 ft | 486 kts | 272° |
| 2026-05-05 04:32 | 53.05712 | -21.62034 | 38000 ft | 486 kts | 272° |
| 2026-05-05 04:32 | 53.06026 | -21.73276 | 38000 ft | 486 kts | 272° |
| 2026-05-05 04:33 | 53.06326 | -21.84431 | 38000 ft | 486 kts | 272° |
| 2026-05-05 04:33 | 53.06618 | -21.95659 | 38000 ft | 486 kts | 272° |
| 2026-05-05 04:34 | 53.06901 | -22.06931 | 38000 ft | 486 kts | 272° |
| 2026-05-05 04:34 | 53.07172 | -22.18168 | 38000 ft | 486 kts | 272° |
| 2026-05-05 04:35 | 53.07432 | -22.29401 | 38000 ft | 486 kts | 272° |
| 2026-05-05 04:35 | 53.07682 | -22.40632 | 38000 ft | 486 kts | 272° |
| 2026-05-05 04:36 | 53.07920 | -22.51827 | 38000 ft | 486 kts | 272° |
| 2026-05-05 04:36 | 53.08149 | -22.63082 | 38000 ft | 486 kts | 272° |
| 2026-05-05 04:37 | 53.08366 | -22.74278 | 38000 ft | 486 kts | 272° |
| 2026-05-05 04:37 | 53.08574 | -22.85556 | 38000 ft | 486 kts | 271° |
| 2026-05-05 04:38 | 53.08770 | -22.96762 | 38000 ft | 486 kts | 271° |
| 2026-05-05 04:38 | 53.08957 | -23.08026 | 38000 ft | 486 kts | 271° |
| 2026-05-05 04:39 | 53.09132 | -23.19234 | 38000 ft | 486 kts | 271° |
| 2026-05-05 04:39 | 53.09297 | -23.30441 | 38000 ft | 486 kts | 271° |
| 2026-05-05 04:40 | 53.09451 | -23.41706 | 38000 ft | 486 kts | 271° |
| 2026-05-05 04:40 | 53.09595 | -23.52973 | 38000 ft | 486 kts | 271° |
| 2026-05-05 04:41 | 53.09728 | -23.64177 | 38000 ft | 486 kts | 271° |
| 2026-05-05 04:41 | 53.09851 | -23.75423 | 38000 ft | 486 kts | 271° |
| 2026-05-05 04:42 | 53.09963 | -23.86701 | 38000 ft | 486 kts | 271° |
| 2026-05-05 04:42 | 53.10065 | -23.97936 | 38000 ft | 486 kts | 271° |
| 2026-05-05 04:43 | 53.10155 | -24.09139 | 38000 ft | 486 kts | 271° |
| 2026-05-05 04:43 | 53.10235 | -24.20353 | 38000 ft | 486 kts | 270° |
| 2026-05-05 04:44 | 53.10305 | -24.31617 | 38000 ft | 486 kts | 270° |
| 2026-05-05 04:44 | 53.10365 | -24.42908 | 38000 ft | 486 kts | 270° |
| 2026-05-05 04:45 | 53.10413 | -24.54115 | 38000 ft | 486 kts | 270° |
| 2026-05-05 04:45 | 53.10451 | -24.65391 | 38000 ft | 486 kts | 270° |
| 2026-05-05 04:46 | 53.10478 | -24.76586 | 38000 ft | 486 kts | 270° |
| 2026-05-05 04:46 | 53.10495 | -24.87860 | 38000 ft | 486 kts | 270° |
| 2026-05-05 04:47 | 53.10501 | -24.99126 | 38000 ft | 486 kts | 270° |
| 2026-05-05 04:47 | 53.10496 | -25.10348 | 38000 ft | 486 kts | 270° |
| 2026-05-05 04:48 | 53.10481 | -25.21555 | 38000 ft | 486 kts | 270° |
| 2026-05-05 04:48 | 53.10456 | -25.32833 | 38000 ft | 486 kts | 270° |
| 2026-05-05 04:49 | 53.10420 | -25.44033 | 38000 ft | 486 kts | 269° |
| 2026-05-05 04:49 | 53.10373 | -25.55305 | 38000 ft | 486 kts | 269° |
| 2026-05-05 04:50 | 53.10315 | -25.66536 | 38000 ft | 486 kts | 269° |
| 2026-05-05 04:50 | 53.10247 | -25.77802 | 38000 ft | 486 kts | 269° |
| 2026-05-05 04:51 | 53.10169 | -25.89019 | 38000 ft | 486 kts | 269° |
| 2026-05-05 04:51 | 53.10080 | -26.00240 | 38000 ft | 486 kts | 269° |
| 2026-05-05 04:52 | 53.09980 | -26.11516 | 38000 ft | 486 kts | 269° |
| 2026-05-05 04:52 | 53.09869 | -26.22790 | 38000 ft | 486 kts | 269° |
| 2026-05-05 04:53 | 53.09748 | -26.33974 | 38000 ft | 486 kts | 269° |
| 2026-05-05 04:53 | 53.09617 | -26.45203 | 38000 ft | 486 kts | 269° |
| 2026-05-05 04:54 | 53.09474 | -26.56487 | 38000 ft | 486 kts | 269° |
| 2026-05-05 04:54 | 53.09322 | -26.67725 | 38000 ft | 486 kts | 269° |
| 2026-05-05 04:55 | 53.09158 | -26.78977 | 38000 ft | 486 kts | 268° |
| 2026-05-05 04:55 | 53.08984 | -26.90218 | 38000 ft | 486 kts | 268° |
| 2026-05-05 04:56 | 53.08800 | -27.01445 | 38000 ft | 486 kts | 268° |
| 2026-05-05 04:56 | 53.08605 | -27.12685 | 38000 ft | 486 kts | 268° |
| 2026-05-05 04:57 | 53.08400 | -27.23854 | 38000 ft | 486 kts | 268° |
| 2026-05-05 04:57 | 53.08183 | -27.35132 | 38000 ft | 486 kts | 268° |
| 2026-05-05 04:58 | 53.07957 | -27.46345 | 38000 ft | 486 kts | 268° |
| 2026-05-05 04:58 | 53.07720 | -27.57535 | 38000 ft | 486 kts | 268° |
| 2026-05-05 04:59 | 53.07472 | -27.68787 | 38000 ft | 486 kts | 268° |
| 2026-05-05 04:59 | 53.07213 | -27.80015 | 38000 ft | 486 kts | 268° |
| 2026-05-05 05:00 | 53.06945 | -27.91217 | 38000 ft | 486 kts | 268° |
| 2026-05-05 05:00 | 53.06664 | -28.02488 | 38000 ft | 486 kts | 268° |
| 2026-05-05 05:01 | 53.06373 | -28.13727 | 38000 ft | 486 kts | 267° |
| 2026-05-05 05:01 | 53.06073 | -28.24934 | 38000 ft | 486 kts | 267° |
| 2026-05-05 05:02 | 53.05761 | -28.36184 | 38000 ft | 486 kts | 267° |
| 2026-05-05 05:02 | 53.05441 | -28.47343 | 38000 ft | 486 kts | 267° |
| 2026-05-05 05:03 | 53.05108 | -28.58577 | 38000 ft | 486 kts | 267° |
| 2026-05-05 05:03 | 53.04765 | -28.69783 | 38000 ft | 486 kts | 267° |
| 2026-05-05 05:04 | 53.04412 | -28.80984 | 38000 ft | 486 kts | 267° |
| 2026-05-05 05:04 | 53.04048 | -28.92211 | 38000 ft | 486 kts | 267° |
| 2026-05-05 05:05 | 53.03673 | -29.03422 | 38000 ft | 486 kts | 266° |
| 2026-05-05 05:05 | 53.03287 | -29.14651 | 38000 ft | 486 kts | 266° |
| 2026-05-05 05:06 | 53.02891 | -29.25866 | 38000 ft | 486 kts | 266° |
| 2026-05-05 05:06 | 53.02487 | -29.37024 | 38000 ft | 486 kts | 266° |
| 2026-05-05 05:07 | 53.02069 | -29.48252 | 38000 ft | 486 kts | 266° |
| 2026-05-05 05:07 | 53.01641 | -29.59468 | 38000 ft | 486 kts | 266° |
| 2026-05-05 05:08 | 53.01203 | -29.70673 | 38000 ft | 486 kts | 266° |
| 2026-05-05 05:08 | 53.00756 | -29.81841 | 38000 ft | 486 kts | 266° |
| 2026-05-05 05:09 | 53.00299 | -29.93001 | 38000 ft | 486 kts | 266° |
| 2026-05-05 05:09 | 53.00210 | -30.04195 | 38000 ft | 486 kts | 272° |
| 2026-05-05 05:10 | 53.00612 | -30.15432 | 38000 ft | 486 kts | 274° |
| 2026-05-05 05:10 | 53.01076 | -30.26597 | 38000 ft | 486 kts | 274° |
| 2026-05-05 05:11 | 53.01534 | -30.37825 | 38000 ft | 486 kts | 274° |
| 2026-05-05 05:11 | 53.01970 | -30.49036 | 38000 ft | 486 kts | 274° |
| 2026-05-05 05:12 | 53.02389 | -30.60239 | 38000 ft | 486 kts | 273° |
| 2026-05-05 05:12 | 53.02796 | -30.71413 | 38000 ft | 486 kts | 273° |
| 2026-05-05 05:13 | 53.03192 | -30.82583 | 38000 ft | 486 kts | 273° |
| 2026-05-05 05:13 | 53.03581 | -30.93820 | 38000 ft | 486 kts | 273° |
| 2026-05-05 05:14 | 53.03960 | -31.05068 | 38000 ft | 486 kts | 273° |
| 2026-05-05 05:14 | 53.04324 | -31.16223 | 38000 ft | 486 kts | 273° |
| 2026-05-05 05:15 | 53.04681 | -31.27454 | 38000 ft | 486 kts | 273° |
| 2026-05-05 05:15 | 53.04969 | -31.36789 | 38000 ft | 486 kts | 273° |
| 2026-05-05 05:16 | 53.05305 | -31.47987 | 38000 ft | 486 kts | 272° |
| 2026-05-05 05:16 | 53.05633 | -31.59240 | 38000 ft | 486 kts | 272° |
| 2026-05-05 05:17 | 53.05947 | -31.70414 | 38000 ft | 486 kts | 272° |
| 2026-05-05 05:17 | 53.06253 | -31.81656 | 38000 ft | 486 kts | 272° |
| 2026-05-05 05:18 | 53.06548 | -31.92909 | 38000 ft | 486 kts | 272° |
| 2026-05-05 05:18 | 53.06831 | -32.04096 | 38000 ft | 486 kts | 272° |
| 2026-05-05 05:19 | 53.07105 | -32.15374 | 38000 ft | 486 kts | 272° |
| 2026-05-05 05:19 | 53.07368 | -32.26586 | 38000 ft | 486 kts | 272° |
| 2026-05-05 05:20 | 53.07620 | -32.37813 | 38000 ft | 486 kts | 272° |
| 2026-05-05 05:20 | 53.07861 | -32.49001 | 38000 ft | 486 kts | 272° |
| 2026-05-05 05:21 | 53.08092 | -32.60220 | 38000 ft | 486 kts | 272° |
| 2026-05-05 05:21 | 53.08313 | -32.71498 | 38000 ft | 486 kts | 272° |
| 2026-05-05 05:22 | 53.08522 | -32.82686 | 38000 ft | 486 kts | 271° |
| 2026-05-05 05:22 | 53.08722 | -32.93957 | 38000 ft | 486 kts | 271° |
| 2026-05-05 05:23 | 53.08910 | -33.05150 | 38000 ft | 486 kts | 271° |
| 2026-05-05 05:23 | 53.09089 | -33.16396 | 38000 ft | 486 kts | 271° |
| 2026-05-05 05:24 | 53.09257 | -33.27665 | 38000 ft | 486 kts | 271° |
| 2026-05-05 05:24 | 53.09414 | -33.38928 | 38000 ft | 486 kts | 271° |
| 2026-05-05 05:25 | 53.09560 | -33.50101 | 38000 ft | 486 kts | 271° |
| 2026-05-05 05:25 | 53.09696 | -33.61374 | 38000 ft | 486 kts | 271° |
| 2026-05-05 05:26 | 53.09821 | -33.72589 | 38000 ft | 486 kts | 271° |
| 2026-05-05 05:26 | 53.09936 | -33.83871 | 38000 ft | 486 kts | 271° |
| 2026-05-05 05:27 | 53.10040 | -33.95072 | 38000 ft | 486 kts | 271° |
| 2026-05-05 05:27 | 53.10177 | -34.11987 | 38000 ft | 486 kts | 270° |
| 2026-05-05 05:28 | 53.10254 | -34.23168 | 38000 ft | 486 kts | 270° |
| 2026-05-05 05:28 | 53.10321 | -34.34465 | 38000 ft | 486 kts | 270° |
| 2026-05-05 05:29 | 53.10378 | -34.45723 | 38000 ft | 486 kts | 270° |
| 2026-05-05 05:29 | 53.10424 | -34.56940 | 38000 ft | 486 kts | 270° |
| 2026-05-05 05:30 | 53.10459 | -34.68161 | 38000 ft | 486 kts | 270° |
| 2026-05-05 05:30 | 53.10483 | -34.79441 | 38000 ft | 486 kts | 270° |
| 2026-05-05 05:31 | 53.10497 | -34.90630 | 38000 ft | 486 kts | 270° |
| 2026-05-05 05:31 | 53.10501 | -35.01917 | 38000 ft | 486 kts | 270° |
| 2026-05-05 05:32 | 53.10494 | -35.13161 | 38000 ft | 486 kts | 270° |
| 2026-05-05 05:32 | 53.10476 | -35.24376 | 38000 ft | 486 kts | 270° |
| 2026-05-05 05:33 | 53.10448 | -35.35575 | 38000 ft | 486 kts | 270° |
| 2026-05-05 05:33 | 53.10409 | -35.46857 | 38000 ft | 486 kts | 269° |
| 2026-05-05 05:34 | 53.10359 | -35.58134 | 38000 ft | 486 kts | 269° |
| 2026-05-05 05:34 | 53.10299 | -35.69335 | 38000 ft | 486 kts | 269° |
| 2026-05-05 05:35 | 53.10229 | -35.80597 | 38000 ft | 486 kts | 269° |
| 2026-05-05 05:35 | 53.10147 | -35.91851 | 38000 ft | 486 kts | 269° |
| 2026-05-05 05:36 | 53.10056 | -36.03036 | 38000 ft | 486 kts | 269° |
| 2026-05-05 05:36 | 53.09954 | -36.14266 | 38000 ft | 486 kts | 269° |
| 2026-05-05 05:37 | 53.09840 | -36.25539 | 38000 ft | 486 kts | 269° |
| 2026-05-05 05:37 | 53.09717 | -36.36785 | 38000 ft | 486 kts | 269° |
| 2026-05-05 05:38 | 53.09582 | -36.48060 | 38000 ft | 486 kts | 269° |
| 2026-05-05 05:38 | 53.09438 | -36.59264 | 38000 ft | 486 kts | 269° |
| 2026-05-05 05:39 | 53.09282 | -36.70543 | 38000 ft | 486 kts | 269° |
| 2026-05-05 05:39 | 53.09117 | -36.81718 | 38000 ft | 486 kts | 268° |
| 2026-05-05 05:40 | 53.08940 | -36.92986 | 38000 ft | 486 kts | 268° |
| 2026-05-05 05:40 | 53.08753 | -37.04202 | 38000 ft | 486 kts | 268° |
| 2026-05-05 05:41 | 53.08556 | -37.15417 | 38000 ft | 486 kts | 268° |
| 2026-05-05 05:41 | 53.08348 | -37.26639 | 38000 ft | 486 kts | 268° |
| 2026-05-05 05:42 | 53.08128 | -37.37915 | 38000 ft | 486 kts | 268° |
| 2026-05-05 05:42 | 53.07898 | -37.49159 | 38000 ft | 486 kts | 268° |
| 2026-05-05 05:43 | 53.07659 | -37.60341 | 38000 ft | 486 kts | 268° |
| 2026-05-05 05:43 | 53.07408 | -37.71610 | 38000 ft | 485 kts | 268° |
| 2026-05-05 05:44 | 53.07148 | -37.82789 | 38000 ft | 485 kts | 268° |
| 2026-05-05 05:44 | 53.06876 | -37.94022 | 38000 ft | 485 kts | 268° |
| 2026-05-05 05:45 | 53.06594 | -38.05239 | 38000 ft | 485 kts | 268° |
| 2026-05-05 05:45 | 53.06303 | -38.16414 | 38000 ft | 485 kts | 267° |
| 2026-05-05 05:46 | 53.05999 | -38.27628 | 38000 ft | 485 kts | 267° |
| 2026-05-05 05:46 | 53.05686 | -38.38842 | 38000 ft | 485 kts | 267° |
| 2026-05-05 05:47 | 53.05363 | -38.50006 | 38000 ft | 485 kts | 267° |
| 2026-05-05 05:47 | 53.05028 | -38.61230 | 38000 ft | 485 kts | 267° |
| 2026-05-05 05:48 | 53.04684 | -38.72385 | 38000 ft | 485 kts | 267° |
| 2026-05-05 05:48 | 53.04328 | -38.83597 | 38000 ft | 485 kts | 267° |
| 2026-05-05 05:49 | 53.03962 | -38.94805 | 38000 ft | 485 kts | 267° |
| 2026-05-05 05:49 | 53.03587 | -39.05965 | 38000 ft | 485 kts | 266° |
| 2026-05-05 05:50 | 53.03201 | -39.17110 | 38000 ft | 485 kts | 266° |
| 2026-05-05 05:50 | 53.02805 | -39.28279 | 38000 ft | 485 kts | 266° |
| 2026-05-05 05:51 | 53.02396 | -39.39489 | 38000 ft | 485 kts | 266° |
| 2026-05-05 05:51 | 53.01979 | -39.50630 | 38000 ft | 484 kts | 266° |
| 2026-05-05 05:52 | 53.01552 | -39.61774 | 38000 ft | 484 kts | 266° |
| 2026-05-05 05:52 | 53.01111 | -39.72993 | 38000 ft | 484 kts | 266° |
| 2026-05-05 05:53 | 53.00664 | -39.84119 | 38000 ft | 484 kts | 266° |
| 2026-05-05 05:53 | 53.00206 | -39.95241 | 38000 ft | 484 kts | 266° |
| 2026-05-05 05:54 | 52.99707 | -40.06436 | 38000 ft | 484 kts | 265° |
| 2026-05-05 05:54 | 52.99056 | -40.17567 | 38000 ft | 484 kts | 264° |
| 2026-05-05 05:55 | 52.98375 | -40.28643 | 38000 ft | 484 kts | 264° |
| 2026-05-05 05:55 | 52.97704 | -40.39741 | 38000 ft | 484 kts | 264° |
| 2026-05-05 05:56 | 52.97032 | -40.50904 | 38000 ft | 484 kts | 264° |
| 2026-05-05 05:56 | 52.96359 | -40.61964 | 38000 ft | 484 kts | 264° |
| 2026-05-05 05:57 | 52.95671 | -40.73088 | 38000 ft | 484 kts | 264° |
| 2026-05-05 05:57 | 52.94971 | -40.84208 | 38000 ft | 484 kts | 264° |
| 2026-05-05 05:58 | 52.94266 | -40.95250 | 38000 ft | 484 kts | 264° |
| 2026-05-05 05:58 | 52.93667 | -41.04501 | 38000 ft | 484 kts | 264° |
| 2026-05-05 05:59 | 52.92941 | -41.15564 | 38000 ft | 484 kts | 264° |
| 2026-05-05 05:59 | 52.92201 | -41.26670 | 38000 ft | 484 kts | 264° |
| 2026-05-05 06:00 | 52.91457 | -41.37701 | 38000 ft | 483 kts | 263° |
| 2026-05-05 06:00 | 52.90697 | -41.48800 | 38000 ft | 483 kts | 263° |
| 2026-05-05 06:01 | 52.89928 | -41.59873 | 38000 ft | 483 kts | 263° |
| 2026-05-05 06:01 | 52.89153 | -41.70885 | 38000 ft | 483 kts | 263° |
| 2026-05-05 06:02 | 52.88361 | -41.81987 | 38000 ft | 483 kts | 263° |
| 2026-05-05 06:02 | 52.87564 | -41.93010 | 38000 ft | 483 kts | 263° |
| 2026-05-05 06:03 | 52.86756 | -42.04034 | 38000 ft | 483 kts | 263° |
| 2026-05-05 06:03 | 52.85939 | -42.15051 | 38000 ft | 483 kts | 263° |
| 2026-05-05 06:04 | 52.85108 | -42.26106 | 38000 ft | 483 kts | 263° |
| 2026-05-05 06:04 | 52.84272 | -42.37089 | 38000 ft | 483 kts | 263° |
| 2026-05-05 06:05 | 52.83421 | -42.48137 | 38000 ft | 483 kts | 263° |
| 2026-05-05 06:05 | 52.82561 | -42.59150 | 38000 ft | 483 kts | 263° |
| 2026-05-05 06:06 | 52.81696 | -42.70105 | 38000 ft | 483 kts | 262° |
| 2026-05-05 06:06 | 52.80815 | -42.81137 | 38000 ft | 483 kts | 262° |
| 2026-05-05 06:07 | 52.79927 | -42.92104 | 38000 ft | 483 kts | 262° |
| 2026-05-05 06:07 | 52.79026 | -43.03120 | 38000 ft | 483 kts | 262° |
| 2026-05-05 06:08 | 52.78120 | -43.14061 | 38000 ft | 482 kts | 262° |
| 2026-05-05 06:08 | 52.77197 | -43.25072 | 38000 ft | 482 kts | 262° |
| 2026-05-05 06:09 | 52.76267 | -43.36056 | 38000 ft | 482 kts | 262° |
| 2026-05-05 06:09 | 52.75332 | -43.46970 | 38000 ft | 482 kts | 262° |
| 2026-05-05 06:10 | 52.74383 | -43.57920 | 38000 ft | 482 kts | 262° |
| 2026-05-05 06:10 | 52.73421 | -43.68904 | 38000 ft | 482 kts | 262° |
| 2026-05-05 06:11 | 52.72456 | -43.79803 | 38000 ft | 482 kts | 262° |
| 2026-05-05 06:11 | 52.71475 | -43.90758 | 38000 ft | 482 kts | 262° |
| 2026-05-05 06:12 | 52.70483 | -44.01727 | 38000 ft | 482 kts | 261° |
| 2026-05-05 06:12 | 52.69487 | -44.12613 | 38000 ft | 482 kts | 261° |
| 2026-05-05 06:13 | 52.68481 | -44.23503 | 38000 ft | 482 kts | 261° |
| 2026-05-05 06:13 | 52.67460 | -44.34439 | 38000 ft | 482 kts | 261° |
| 2026-05-05 06:14 | 52.66428 | -44.45382 | 38000 ft | 482 kts | 261° |
| 2026-05-05 06:14 | 52.65395 | -44.56224 | 38000 ft | 482 kts | 261° |
| 2026-05-05 06:15 | 52.64343 | -44.67150 | 38000 ft | 482 kts | 261° |
| 2026-05-05 06:15 | 52.63284 | -44.78052 | 38000 ft | 482 kts | 261° |
| 2026-05-05 06:16 | 52.62221 | -44.88880 | 38000 ft | 481 kts | 261° |
| 2026-05-05 06:16 | 52.61141 | -44.99774 | 38000 ft | 481 kts | 261° |
| 2026-05-05 06:17 | 52.60055 | -45.10617 | 38000 ft | 481 kts | 261° |
| 2026-05-05 06:17 | 52.58955 | -45.21500 | 38000 ft | 481 kts | 261° |
| 2026-05-05 06:18 | 52.57846 | -45.32369 | 38000 ft | 481 kts | 260° |
| 2026-05-05 06:18 | 52.56733 | -45.43178 | 38000 ft | 481 kts | 260° |
| 2026-05-05 06:19 | 52.55603 | -45.54045 | 38000 ft | 481 kts | 260° |
| 2026-05-05 06:19 | 52.54465 | -45.64894 | 38000 ft | 481 kts | 260° |
| 2026-05-05 06:20 | 52.53321 | -45.75693 | 38000 ft | 481 kts | 260° |
| 2026-05-05 06:20 | 52.52161 | -45.86548 | 38000 ft | 481 kts | 260° |
| 2026-05-05 06:21 | 52.51001 | -45.97309 | 38000 ft | 481 kts | 260° |
| 2026-05-05 06:21 | 52.49826 | -46.08108 | 38000 ft | 481 kts | 260° |
| 2026-05-05 06:22 | 52.48636 | -46.18942 | 38000 ft | 481 kts | 259° |
| 2026-05-05 06:22 | 52.47440 | -46.29746 | 38000 ft | 481 kts | 259° |
| 2026-05-05 06:23 | 52.46238 | -46.40506 | 38000 ft | 481 kts | 259° |
| 2026-05-05 06:23 | 52.45027 | -46.51256 | 38000 ft | 481 kts | 259° |
| 2026-05-05 06:24 | 52.43800 | -46.62045 | 38000 ft | 481 kts | 259° |
| 2026-05-05 06:24 | 52.42566 | -46.72818 | 38000 ft | 480 kts | 259° |
| 2026-05-05 06:25 | 52.41327 | -46.83533 | 38000 ft | 480 kts | 259° |
| 2026-05-05 06:25 | 52.40068 | -46.94331 | 38000 ft | 480 kts | 259° |
| 2026-05-05 06:26 | 52.38811 | -47.05030 | 38000 ft | 480 kts | 259° |
| 2026-05-05 06:26 | 52.37537 | -47.15778 | 38000 ft | 480 kts | 259° |
| 2026-05-05 06:27 | 52.35613 | -47.31844 | 38000 ft | 480 kts | 259° |
| 2026-05-05 06:28 | 52.34314 | -47.42586 | 38000 ft | 480 kts | 259° |
| 2026-05-05 06:28 | 52.33013 | -47.53258 | 38000 ft | 480 kts | 258° |
| 2026-05-05 06:29 | 52.31695 | -47.63979 | 38000 ft | 480 kts | 258° |
| 2026-05-05 06:29 | 52.30375 | -47.74638 | 38000 ft | 480 kts | 258° |
| 2026-05-05 06:30 | 52.29036 | -47.85358 | 38000 ft | 480 kts | 258° |
| 2026-05-05 06:30 | 52.27693 | -47.96033 | 38000 ft | 480 kts | 258° |
| 2026-05-05 06:31 | 52.26347 | -48.06647 | 38000 ft | 480 kts | 258° |
| 2026-05-05 06:31 | 52.24984 | -48.17317 | 38000 ft | 480 kts | 258° |
| 2026-05-05 06:32 | 52.23615 | -48.27943 | 38000 ft | 480 kts | 258° |
| 2026-05-05 06:32 | 52.22233 | -48.38597 | 38000 ft | 480 kts | 258° |
| 2026-05-05 06:33 | 52.20839 | -48.49257 | 38000 ft | 479 kts | 258° |
| 2026-05-05 06:33 | 52.19445 | -48.59846 | 38000 ft | 479 kts | 258° |
| 2026-05-05 06:34 | 52.18031 | -48.70504 | 38000 ft | 479 kts | 258° |
| 2026-05-05 06:34 | 52.16620 | -48.81059 | 38000 ft | 479 kts | 258° |
| 2026-05-05 06:35 | 52.15187 | -48.91700 | 38000 ft | 479 kts | 257° |
| 2026-05-05 06:35 | 52.13753 | -49.02273 | 38000 ft | 479 kts | 257° |
| 2026-05-05 06:36 | 52.12310 | -49.12832 | 38000 ft | 479 kts | 257° |
| 2026-05-05 06:36 | 52.10846 | -49.23473 | 38000 ft | 479 kts | 257° |
| 2026-05-05 06:37 | 52.09385 | -49.34017 | 38000 ft | 479 kts | 257° |
| 2026-05-05 06:37 | 52.07914 | -49.44553 | 38000 ft | 479 kts | 257° |
| 2026-05-05 06:38 | 52.06427 | -49.55134 | 38000 ft | 479 kts | 257° |
| 2026-05-05 06:38 | 52.04932 | -49.65698 | 38000 ft | 479 kts | 257° |
| 2026-05-05 06:39 | 52.03437 | -49.76186 | 38000 ft | 479 kts | 257° |
| 2026-05-05 06:39 | 52.01920 | -49.86755 | 38000 ft | 479 kts | 257° |
| 2026-05-05 06:40 | 52.00400 | -49.97213 | 37997 ft | 479 kts | 256° |
| 2026-05-05 06:40 | 51.98229 | -50.07466 | 38000 ft | 479 kts | 249° |
| 2026-05-05 06:41 | 51.95835 | -50.17483 | 38000 ft | 479 kts | 249° |
| 2026-05-05 06:41 | 51.93381 | -50.27530 | 38000 ft | 479 kts | 248° |
| 2026-05-05 06:42 | 51.91343 | -50.35869 | 38000 ft | 478 kts | 248° |
| 2026-05-05 06:42 | 51.88889 | -50.45908 | 38000 ft | 478 kts | 248° |
| 2026-05-05 06:43 | 51.86432 | -50.55934 | 38000 ft | 478 kts | 248° |
| 2026-05-05 06:43 | 51.83976 | -50.65912 | 38000 ft | 478 kts | 248° |
| 2026-05-05 06:44 | 51.81497 | -50.75937 | 38000 ft | 478 kts | 248° |
| 2026-05-05 06:44 | 51.79027 | -50.85878 | 38000 ft | 478 kts | 248° |
| 2026-05-05 06:45 | 51.76549 | -50.95805 | 38000 ft | 478 kts | 248° |
| 2026-05-05 06:45 | 51.74050 | -51.05772 | 38000 ft | 478 kts | 248° |
| 2026-05-05 06:46 | 51.71545 | -51.15718 | 38000 ft | 478 kts | 248° |
| 2026-05-05 06:46 | 51.69044 | -51.25604 | 38000 ft | 478 kts | 248° |
| 2026-05-05 06:47 | 51.66516 | -51.35553 | 38000 ft | 478 kts | 248° |
| 2026-05-05 06:47 | 51.64002 | -51.45406 | 38000 ft | 478 kts | 248° |
| 2026-05-05 06:48 | 51.61466 | -51.55300 | 38000 ft | 478 kts | 248° |
| 2026-05-05 06:48 | 51.58919 | -51.65191 | 38000 ft | 478 kts | 248° |
| 2026-05-05 06:49 | 51.56380 | -51.75008 | 38000 ft | 478 kts | 247° |
| 2026-05-05 06:49 | 51.53817 | -51.84877 | 38000 ft | 478 kts | 247° |
| 2026-05-05 06:50 | 51.51254 | -51.94703 | 38000 ft | 478 kts | 247° |
| 2026-05-05 06:50 | 51.48677 | -52.04539 | 38000 ft | 477 kts | 247° |
| 2026-05-05 06:51 | 51.46086 | -52.14389 | 38000 ft | 477 kts | 247° |
| 2026-05-05 06:51 | 51.43509 | -52.24141 | 38000 ft | 477 kts | 247° |
| 2026-05-05 06:52 | 51.40910 | -52.33932 | 38000 ft | 477 kts | 247° |
| 2026-05-05 06:52 | 51.38302 | -52.43721 | 38000 ft | 477 kts | 247° |
| 2026-05-05 06:53 | 51.35697 | -52.53452 | 38000 ft | 477 kts | 247° |
| 2026-05-05 06:53 | 51.33065 | -52.63246 | 38000 ft | 477 kts | 247° |
| 2026-05-05 06:54 | 51.30446 | -52.72950 | 38000 ft | 477 kts | 246° |
| 2026-05-05 06:54 | 51.27806 | -52.82687 | 38000 ft | 477 kts | 246° |
| 2026-05-05 06:55 | 51.25172 | -52.92366 | 38000 ft | 477 kts | 246° |
| 2026-05-05 06:55 | 51.22509 | -53.02108 | 38000 ft | 477 kts | 246° |
| 2026-05-05 06:56 | 51.19862 | -53.11750 | 38000 ft | 477 kts | 246° |
| 2026-05-05 06:56 | 51.17188 | -53.21452 | 38000 ft | 477 kts | 246° |
| 2026-05-05 06:57 | 51.14668 | -53.31214 | 38000 ft | 477 kts | 250° |
| 2026-05-05 06:57 | 51.12458 | -53.41191 | 38000 ft | 477 kts | 251° |
| 2026-05-05 06:58 | 51.10259 | -53.51115 | 38000 ft | 477 kts | 250° |
| 2026-05-05 06:58 | 51.07986 | -53.61045 | 38000 ft | 476 kts | 250° |
| 2026-05-05 06:59 | 51.05699 | -53.70863 | 38000 ft | 476 kts | 250° |
| 2026-05-05 06:59 | 51.03381 | -53.80745 | 38000 ft | 476 kts | 250° |
| 2026-05-05 07:00 | 51.01055 | -53.90626 | 38000 ft | 476 kts | 249° |
| 2026-05-05 07:00 | 50.98735 | -54.00445 | 38000 ft | 476 kts | 249° |
| 2026-05-05 07:01 | 50.96395 | -54.10307 | 38000 ft | 476 kts | 249° |
| 2026-05-05 07:01 | 50.94054 | -54.20129 | 38000 ft | 476 kts | 249° |
| 2026-05-05 07:02 | 50.91713 | -54.29907 | 38000 ft | 476 kts | 249° |
| 2026-05-05 07:02 | 50.89349 | -54.39732 | 38000 ft | 476 kts | 249° |
| 2026-05-05 07:03 | 50.86983 | -54.49523 | 38000 ft | 476 kts | 249° |
| 2026-05-05 07:03 | 50.84615 | -54.59282 | 38000 ft | 476 kts | 249° |
| 2026-05-05 07:04 | 50.82234 | -54.69050 | 38000 ft | 476 kts | 249° |
| 2026-05-05 07:04 | 50.79847 | -54.78796 | 38000 ft | 476 kts | 249° |
| 2026-05-05 07:05 | 50.77457 | -54.88515 | 38000 ft | 476 kts | 249° |
| 2026-05-05 07:05 | 50.75045 | -54.98276 | 38000 ft | 476 kts | 249° |
| 2026-05-05 07:06 | 50.72640 | -55.07971 | 38000 ft | 476 kts | 249° |
| 2026-05-05 07:06 | 50.70222 | -55.17673 | 38000 ft | 476 kts | 249° |
| 2026-05-05 07:07 | 50.67785 | -55.27409 | 38000 ft | 475 kts | 248° |
| 2026-05-05 07:07 | 50.65350 | -55.37093 | 38000 ft | 475 kts | 248° |
| 2026-05-05 07:08 | 50.62913 | -55.46746 | 38000 ft | 475 kts | 248° |
| 2026-05-05 07:08 | 50.60464 | -55.56406 | 38000 ft | 475 kts | 248° |
| 2026-05-05 07:09 | 50.57997 | -55.66091 | 38000 ft | 475 kts | 248° |
| 2026-05-05 07:09 | 50.55536 | -55.75714 | 38000 ft | 475 kts | 248° |
| 2026-05-05 07:10 | 50.53054 | -55.85379 | 38000 ft | 475 kts | 248° |
| 2026-05-05 07:10 | 50.50582 | -55.94961 | 38000 ft | 475 kts | 248° |
| 2026-05-05 07:11 | 50.48088 | -56.04588 | 38000 ft | 475 kts | 248° |
| 2026-05-05 07:11 | 50.45584 | -56.14214 | 38000 ft | 475 kts | 248° |
| 2026-05-05 07:12 | 50.43083 | -56.23786 | 38000 ft | 475 kts | 248° |
| 2026-05-05 07:12 | 50.40570 | -56.33368 | 38000 ft | 475 kts | 248° |
| 2026-05-05 07:13 | 50.38048 | -56.42940 | 38000 ft | 475 kts | 248° |
| 2026-05-05 07:13 | 50.35527 | -56.52470 | 38000 ft | 476 kts | 248° |
| 2026-05-05 07:14 | 50.32983 | -56.62046 | 38000 ft | 477 kts | 247° |
| 2026-05-05 07:14 | 50.30429 | -56.71623 | 38000 ft | 477 kts | 247° |
| 2026-05-05 07:15 | 50.27868 | -56.81183 | 38000 ft | 477 kts | 247° |
| 2026-05-05 07:15 | 50.25297 | -56.90742 | 38000 ft | 477 kts | 247° |
| 2026-05-05 07:16 | 50.22709 | -57.00324 | 38001 ft | 478 kts | 247° |
| 2026-05-05 07:16 | 50.20127 | -57.09843 | 38000 ft | 478 kts | 247° |
| 2026-05-05 07:17 | 50.17518 | -57.19424 | 38000 ft | 478 kts | 247° |
| 2026-05-05 07:17 | 50.14903 | -57.28990 | 38000 ft | 478 kts | 247° |
| 2026-05-05 07:18 | 50.12296 | -57.38486 | 38001 ft | 477 kts | 247° |
| 2026-05-05 07:18 | 50.09686 | -57.47953 | 38002 ft | 477 kts | 247° |
| 2026-05-05 07:19 | 50.07048 | -57.57485 | 38001 ft | 477 kts | 246° |
| 2026-05-05 07:19 | 50.04437 | -57.66880 | 38000 ft | 475 kts | 246° |
| 2026-05-05 07:20 | 50.01794 | -57.76353 | 38000 ft | 474 kts | 246° |
| 2026-05-05 07:20 | 49.99172 | -57.85712 | 38000 ft | 474 kts | 246° |
| 2026-05-05 07:21 | 49.96527 | -57.95118 | 38000 ft | 474 kts | 246° |
| 2026-05-05 07:21 | 49.93883 | -58.04483 | 38000 ft | 474 kts | 246° |
| 2026-05-05 07:22 | 49.91242 | -58.13799 | 38000 ft | 474 kts | 246° |
| 2026-05-05 07:22 | 49.88568 | -58.23195 | 38000 ft | 474 kts | 246° |
| 2026-05-05 07:23 | 49.85911 | -58.32495 | 38000 ft | 474 kts | 246° |
| 2026-05-05 07:23 | 49.83223 | -58.41867 | 38000 ft | 474 kts | 246° |
| 2026-05-05 07:24 | 49.80549 | -58.51152 | 38000 ft | 473 kts | 246° |
| 2026-05-05 07:24 | 49.77869 | -58.60423 | 38000 ft | 473 kts | 246° |
| 2026-05-05 07:25 | 49.75165 | -58.69743 | 38000 ft | 473 kts | 246° |
| 2026-05-05 07:25 | 49.72472 | -58.78988 | 38000 ft | 473 kts | 246° |
| 2026-05-05 07:26 | 49.69755 | -58.88278 | 38000 ft | 473 kts | 246° |
| 2026-05-05 07:26 | 49.67046 | -58.97507 | 38000 ft | 473 kts | 245° |
| 2026-05-05 07:27 | 49.64775 | -59.05213 | 38000 ft | 473 kts | 245° |
| 2026-05-05 07:27 | 49.62039 | -59.14470 | 38000 ft | 473 kts | 245° |
| 2026-05-05 07:28 | 49.59296 | -59.23715 | 38000 ft | 473 kts | 245° |
| 2026-05-05 07:28 | 49.56562 | -59.32893 | 38000 ft | 473 kts | 245° |
| 2026-05-05 07:29 | 49.53803 | -59.42118 | 38000 ft | 473 kts | 245° |
| 2026-05-05 07:29 | 49.51055 | -59.51274 | 38000 ft | 473 kts | 245° |
| 2026-05-05 07:30 | 49.48294 | -59.60439 | 38000 ft | 473 kts | 245° |
| 2026-05-05 07:30 | 49.44121 | -59.74225 | 38000 ft | 473 kts | 245° |
| 2026-05-05 07:31 | 49.41353 | -59.83329 | 38000 ft | 473 kts | 245° |
| 2026-05-05 07:31 | 49.38556 | -59.92491 | 38000 ft | 473 kts | 245° |
| 2026-05-05 07:32 | 49.35762 | -60.01613 | 38000 ft | 473 kts | 245° |
| 2026-05-05 07:32 | 49.32959 | -60.10729 | 38000 ft | 472 kts | 245° |
| 2026-05-05 07:33 | 49.30145 | -60.19844 | 38000 ft | 472 kts | 245° |
| 2026-05-05 07:33 | 49.27331 | -60.28930 | 38000 ft | 472 kts | 245° |
| 2026-05-05 07:34 | 49.24513 | -60.37993 | 38000 ft | 472 kts | 244° |
| 2026-05-05 07:34 | 49.21680 | -60.47070 | 38000 ft | 472 kts | 244° |
| 2026-05-05 07:35 | 49.18837 | -60.56149 | 38000 ft | 472 kts | 244° |
| 2026-05-05 07:35 | 49.16004 | -60.65160 | 38000 ft | 472 kts | 244° |
| 2026-05-05 07:36 | 49.13153 | -60.74197 | 38000 ft | 472 kts | 244° |
| 2026-05-05 07:36 | 49.10291 | -60.83237 | 38000 ft | 472 kts | 244° |
| 2026-05-05 07:37 | 49.07438 | -60.92214 | 38000 ft | 472 kts | 244° |
| 2026-05-05 07:37 | 49.04561 | -61.01237 | 38000 ft | 472 kts | 244° |
| 2026-05-05 07:38 | 49.01676 | -61.10250 | 38000 ft | 472 kts | 244° |
| 2026-05-05 07:38 | 48.98809 | -61.19177 | 38000 ft | 472 kts | 244° |
| 2026-05-05 07:39 | 48.95914 | -61.28158 | 38000 ft | 472 kts | 244° |
| 2026-05-05 07:39 | 48.93026 | -61.37085 | 38000 ft | 472 kts | 244° |
| 2026-05-05 07:40 | 48.90128 | -61.46012 | 38000 ft | 472 kts | 244° |
| 2026-05-05 07:40 | 48.87209 | -61.54971 | 38000 ft | 472 kts | 244° |
| 2026-05-05 07:41 | 48.84287 | -61.63907 | 38000 ft | 471 kts | 244° |
| 2026-05-05 07:41 | 48.81380 | -61.72769 | 38000 ft | 471 kts | 243° |
| 2026-05-05 07:42 | 48.78444 | -61.81685 | 38000 ft | 471 kts | 243° |
| 2026-05-05 07:42 | 48.75515 | -61.90548 | 38000 ft | 471 kts | 243° |
| 2026-05-05 07:43 | 48.72570 | -61.99433 | 38000 ft | 471 kts | 243° |
| 2026-05-05 07:43 | 48.69608 | -62.08335 | 38000 ft | 471 kts | 243° |
| 2026-05-05 07:44 | 48.66653 | -62.17185 | 38000 ft | 471 kts | 243° |
| 2026-05-05 07:44 | 48.63703 | -62.25989 | 38000 ft | 471 kts | 243° |
| 2026-05-05 07:45 | 48.60724 | -62.34850 | 38000 ft | 471 kts | 243° |
| 2026-05-05 07:45 | 48.57769 | -62.43610 | 38000 ft | 471 kts | 243° |
| 2026-05-05 07:46 | 48.54781 | -62.52437 | 38000 ft | 471 kts | 243° |
| 2026-05-05 07:46 | 48.51792 | -62.61237 | 38000 ft | 471 kts | 243° |
| 2026-05-05 07:47 | 48.48794 | -62.70031 | 38000 ft | 471 kts | 243° |
| 2026-05-05 07:47 | 48.45809 | -62.78759 | 38000 ft | 471 kts | 243° |
| 2026-05-05 07:48 | 48.42799 | -62.87531 | 38000 ft | 471 kts | 243° |
| 2026-05-05 07:48 | 48.39796 | -62.96252 | 38000 ft | 471 kts | 243° |
| 2026-05-05 07:49 | 48.36770 | -63.05010 | 38000 ft | 471 kts | 243° |
| 2026-05-05 07:49 | 48.33750 | -63.13721 | 38000 ft | 470 kts | 242° |
| 2026-05-05 07:50 | 48.30709 | -63.22464 | 38000 ft | 470 kts | 242° |
| 2026-05-05 07:50 | 48.27682 | -63.31136 | 38000 ft | 470 kts | 242° |
| 2026-05-05 07:51 | 48.24630 | -63.39851 | 38000 ft | 470 kts | 242° |
| 2026-05-05 07:51 | 48.21596 | -63.48489 | 38000 ft | 470 kts | 242° |
| 2026-05-05 07:52 | 48.18530 | -63.57185 | 38000 ft | 470 kts | 242° |
| 2026-05-05 07:52 | 48.15481 | -63.65807 | 38000 ft | 470 kts | 242° |
| 2026-05-05 07:53 | 48.12408 | -63.74466 | 38000 ft | 470 kts | 242° |
| 2026-05-05 07:53 | 48.09328 | -63.83116 | 38000 ft | 470 kts | 242° |
| 2026-05-05 07:54 | 48.06243 | -63.91753 | 38000 ft | 470 kts | 242° |
| 2026-05-05 07:54 | 48.03171 | -64.00325 | 38000 ft | 470 kts | 242° |
| 2026-05-05 07:55 | 48.00085 | -64.08907 | 38000 ft | 470 kts | 242° |
| 2026-05-05 07:55 | 47.96973 | -64.17533 | 38000 ft | 470 kts | 242° |
| 2026-05-05 07:56 | 47.93876 | -64.26091 | 38000 ft | 470 kts | 242° |
| 2026-05-05 07:56 | 47.90766 | -64.34657 | 38000 ft | 470 kts | 242° |
| 2026-05-05 07:57 | 47.87647 | -64.43218 | 38000 ft | 470 kts | 242° |
| 2026-05-05 07:57 | 47.84523 | -64.51766 | 38000 ft | 470 kts | 242° |
| 2026-05-05 07:58 | 47.81407 | -64.60266 | 38000 ft | 470 kts | 241° |
| 2026-05-05 07:58 | 47.78261 | -64.68818 | 38000 ft | 469 kts | 241° |
| 2026-05-05 07:59 | 47.75136 | -64.77287 | 38000 ft | 469 kts | 241° |
| 2026-05-05 07:59 | 47.71997 | -64.85768 | 38000 ft | 469 kts | 241° |
| 2026-05-05 08:00 | 47.68832 | -64.94288 | 38000 ft | 469 kts | 241° |
| 2026-05-05 08:00 | 47.65687 | -65.02729 | 38000 ft | 469 kts | 241° |
| 2026-05-05 08:01 | 47.62512 | -65.11226 | 38000 ft | 469 kts | 241° |
| 2026-05-05 08:01 | 47.59352 | -65.19653 | 38000 ft | 469 kts | 241° |
| 2026-05-05 08:02 | 47.56171 | -65.28111 | 38000 ft | 469 kts | 241° |
| 2026-05-05 08:02 | 47.52984 | -65.36557 | 38000 ft | 469 kts | 241° |
| 2026-05-05 08:03 | 47.49785 | -65.45009 | 38000 ft | 470 kts | 241° |
| 2026-05-05 08:03 | 47.46600 | -65.53396 | 38000 ft | 470 kts | 240° |
| 2026-05-05 08:04 | 47.43393 | -65.61815 | 38000 ft | 470 kts | 240° |
| 2026-05-05 08:04 | 47.40178 | -65.70229 | 38000 ft | 469 kts | 240° |
| 2026-05-05 08:05 | 47.36960 | -65.78625 | 38000 ft | 469 kts | 240° |
| 2026-05-05 08:05 | 47.33760 | -65.86949 | 38000 ft | 469 kts | 240° |
| 2026-05-05 08:06 | 47.30521 | -65.95347 | 38000 ft | 470 kts | 240° |
| 2026-05-05 08:06 | 47.27279 | -66.03725 | 38000 ft | 470 kts | 240° |
| 2026-05-05 08:07 | 47.24046 | -66.12057 | 38000 ft | 471 kts | 240° |
| 2026-05-05 08:07 | 47.20799 | -66.20399 | 38000 ft | 471 kts | 240° |
| 2026-05-05 08:08 | 47.17523 | -66.28787 | 38000 ft | 471 kts | 240° |
| 2026-05-05 08:08 | 47.14278 | -66.37071 | 38000 ft | 471 kts | 240° |
| 2026-05-05 08:09 | 47.10975 | -66.45478 | 38001 ft | 472 kts | 240° |
| 2026-05-05 08:09 | 47.07698 | -66.53792 | 38000 ft | 471 kts | 240° |
| 2026-05-05 08:10 | 47.04422 | -66.62080 | 38000 ft | 471 kts | 240° |
| 2026-05-05 08:10 | 47.01680 | -66.68995 | 38000 ft | 471 kts | 240° |
| 2026-05-05 08:11 | 46.98374 | -66.77311 | 38000 ft | 471 kts | 240° |
| 2026-05-05 08:11 | 46.95064 | -66.85612 | 38000 ft | 471 kts | 240° |
| 2026-05-05 08:12 | 46.91763 | -66.93865 | 38000 ft | 471 kts | 240° |
| 2026-05-05 08:12 | 46.88457 | -67.02106 | 38000 ft | 471 kts | 239° |
| 2026-05-05 08:13 | 46.85036 | -67.10291 | 38000 ft | 471 kts | 236° |
| 2026-05-05 08:13 | 46.81292 | -67.18150 | 38000 ft | 471 kts | 234° |
| 2026-05-05 08:14 | 46.77513 | -67.25967 | 38000 ft | 470 kts | 235° |
| 2026-05-05 08:14 | 46.73807 | -67.33765 | 38000 ft | 470 kts | 236° |
| 2026-05-05 08:15 | 46.70088 | -67.41650 | 38000 ft | 470 kts | 236° |
| 2026-05-05 08:15 | 46.66397 | -67.49471 | 38000 ft | 471 kts | 236° |
| 2026-05-05 08:16 | 46.62672 | -67.57337 | 38000 ft | 470 kts | 235° |
| 2026-05-05 08:16 | 46.58963 | -67.65142 | 38000 ft | 469 kts | 235° |
| 2026-05-05 08:17 | 46.55246 | -67.72939 | 38000 ft | 468 kts | 235° |
| 2026-05-05 08:17 | 46.51530 | -67.80714 | 38000 ft | 468 kts | 235° |
| 2026-05-05 08:18 | 46.47824 | -67.88445 | 38000 ft | 468 kts | 235° |
| 2026-05-05 08:18 | 46.44076 | -67.96242 | 38000 ft | 469 kts | 235° |
| 2026-05-05 08:19 | 46.40345 | -68.03984 | 38000 ft | 469 kts | 235° |
| 2026-05-05 08:19 | 46.36618 | -68.11694 | 38000 ft | 469 kts | 235° |
| 2026-05-05 08:20 | 46.32856 | -68.19458 | 38000 ft | 469 kts | 235° |
| 2026-05-05 08:20 | 46.29121 | -68.27143 | 38000 ft | 469 kts | 235° |
| 2026-05-05 08:21 | 46.25356 | -68.34869 | 38000 ft | 469 kts | 235° |
| 2026-05-05 08:21 | 46.21605 | -68.42544 | 38000 ft | 469 kts | 235° |
| 2026-05-05 08:22 | 46.17823 | -68.50263 | 38000 ft | 469 kts | 235° |
| 2026-05-05 08:22 | 46.14044 | -68.57954 | 38000 ft | 469 kts | 234° |
| 2026-05-05 08:23 | 46.10286 | -68.65581 | 38000 ft | 468 kts | 234° |
| 2026-05-05 08:23 | 46.06500 | -68.73244 | 38000 ft | 468 kts | 234° |
| 2026-05-05 08:24 | 46.02732 | -68.80850 | 38000 ft | 468 kts | 234° |
| 2026-05-05 08:24 | 45.98936 | -68.88491 | 38000 ft | 469 kts | 234° |
| 2026-05-05 08:25 | 45.95129 | -68.96136 | 38001 ft | 470 kts | 234° |
| 2026-05-05 08:25 | 45.91318 | -69.03767 | 38002 ft | 472 kts | 234° |
| 2026-05-05 08:26 | 45.87489 | -69.11413 | 38000 ft | 470 kts | 234° |
| 2026-05-05 08:26 | 45.83685 | -69.18988 | 38000 ft | 469 kts | 234° |
| 2026-05-05 08:27 | 45.79866 | -69.26572 | 38000 ft | 468 kts | 234° |
| 2026-05-05 08:27 | 45.76058 | -69.34115 | 38000 ft | 469 kts | 234° |
| 2026-05-05 08:28 | 45.72226 | -69.41686 | 38000 ft | 469 kts | 234° |
| 2026-05-05 08:28 | 45.68388 | -69.49248 | 38000 ft | 469 kts | 234° |
| 2026-05-05 08:29 | 45.64566 | -69.56758 | 38000 ft | 469 kts | 234° |
| 2026-05-05 08:30 | 45.58790 | -69.68072 | 38000 ft | 468 kts | 234° |
| 2026-05-05 08:30 | 45.54947 | -69.75573 | 38000 ft | 468 kts | 234° |
| 2026-05-05 08:31 | 45.51112 | -69.83039 | 38000 ft | 468 kts | 234° |
| 2026-05-05 08:31 | 45.47248 | -69.90542 | 38000 ft | 468 kts | 234° |
| 2026-05-05 08:32 | 45.43402 | -69.97991 | 38000 ft | 468 kts | 234° |
| 2026-05-05 08:32 | 45.39537 | -70.05456 | 38000 ft | 468 kts | 233° |
| 2026-05-05 08:33 | 45.35687 | -70.12873 | 38000 ft | 468 kts | 233° |
| 2026-05-05 08:33 | 45.31803 | -70.20336 | 38000 ft | 468 kts | 233° |
| 2026-05-05 08:34 | 45.27941 | -70.27738 | 38000 ft | 468 kts | 233° |
| 2026-05-05 08:34 | 45.24058 | -70.35160 | 38001 ft | 468 kts | 233° |
| 2026-05-05 08:35 | 45.20163 | -70.42586 | 38000 ft | 468 kts | 233° |
| 2026-05-05 08:35 | 45.16285 | -70.49961 | 38000 ft | 468 kts | 233° |
| 2026-05-05 08:36 | 45.12373 | -70.57379 | 37999 ft | 469 kts | 233° |
| 2026-05-05 08:36 | 45.08470 | -70.64764 | 38001 ft | 471 kts | 233° |
| 2026-05-05 08:37 | 45.04548 | -70.72164 | 37999 ft | 470 kts | 233° |
| 2026-05-05 08:37 | 45.00613 | -70.79570 | 38000 ft | 470 kts | 233° |
| 2026-05-05 08:38 | 44.96700 | -70.86915 | 38000 ft | 469 kts | 233° |
| 2026-05-05 08:38 | 44.92768 | -70.94276 | 38000 ft | 468 kts | 233° |
| 2026-05-05 08:39 | 44.88857 | -71.01580 | 38001 ft | 469 kts | 233° |
| 2026-05-05 08:39 | 44.84914 | -71.08925 | 37999 ft | 468 kts | 233° |
| 2026-05-05 08:40 | 44.80768 | -71.15965 | 38001 ft | 468 kts | 227° |
| 2026-05-05 08:40 | 44.76378 | -71.22780 | 38000 ft | 468 kts | 228° |
| 2026-05-05 08:41 | 44.72045 | -71.29599 | 38001 ft | 469 kts | 228° |
| 2026-05-05 08:41 | 44.67691 | -71.36477 | 37999 ft | 469 kts | 229° |
| 2026-05-05 08:42 | 44.63379 | -71.43286 | 38001 ft | 470 kts | 228° |
| 2026-05-05 08:42 | 44.59023 | -71.50151 | 38000 ft | 468 kts | 228° |
| 2026-05-05 08:43 | 44.54706 | -71.56938 | 38000 ft | 467 kts | 228° |
| 2026-05-05 08:43 | 44.50371 | -71.63738 | 38000 ft | 467 kts | 228° |
| 2026-05-05 08:44 | 44.46062 | -71.70481 | 38000 ft | 467 kts | 228° |
| 2026-05-05 08:44 | 44.41708 | -71.77279 | 38000 ft | 467 kts | 228° |
| 2026-05-05 08:45 | 44.37382 | -71.84015 | 38000 ft | 467 kts | 228° |
| 2026-05-05 08:45 | 44.33033 | -71.90772 | 38000 ft | 466 kts | 228° |
| 2026-05-05 08:46 | 44.28710 | -71.97474 | 38000 ft | 467 kts | 228° |
| 2026-05-05 08:46 | 44.24347 | -72.04220 | 38001 ft | 468 kts | 228° |
| 2026-05-05 08:47 | 44.19978 | -72.10959 | 38000 ft | 466 kts | 228° |
| 2026-05-05 08:47 | 44.15644 | -72.17630 | 38000 ft | 466 kts | 228° |
| 2026-05-05 08:48 | 44.11300 | -72.24299 | 38000 ft | 467 kts | 228° |
| 2026-05-05 08:48 | 44.06920 | -72.31007 | 38000 ft | 467 kts | 228° |
| 2026-05-05 08:49 | 44.02544 | -72.37693 | 38000 ft | 467 kts | 228° |
| 2026-05-05 08:49 | 43.98189 | -72.44333 | 38001 ft | 467 kts | 228° |
| 2026-05-05 08:50 | 43.93793 | -72.51018 | 38000 ft | 466 kts | 227° |
| 2026-05-05 08:50 | 43.89409 | -72.57669 | 38000 ft | 466 kts | 227° |
| 2026-05-05 08:51 | 43.85056 | -72.64259 | 38001 ft | 466 kts | 227° |
| 2026-05-05 08:51 | 43.80683 | -72.70862 | 38000 ft | 466 kts | 227° |
| 2026-05-05 08:52 | 43.76286 | -72.77488 | 38000 ft | 466 kts | 227° |
| 2026-05-05 08:52 | 43.71907 | -72.84069 | 38000 ft | 467 kts | 227° |
| 2026-05-05 08:53 | 43.67495 | -72.90685 | 38000 ft | 468 kts | 227° |
| 2026-05-05 08:53 | 43.63098 | -72.97264 | 38000 ft | 467 kts | 227° |
| 2026-05-05 08:54 | 43.58702 | -73.03825 | 38000 ft | 465 kts | 227° |
| 2026-05-05 08:54 | 43.55043 | -73.09276 | 38000 ft | 465 kts | 227° |
| 2026-05-05 08:55 | 43.50618 | -73.15854 | 38000 ft | 466 kts | 227° |
| 2026-05-05 08:55 | 43.46225 | -73.22367 | 38000 ft | 465 kts | 227° |
| 2026-05-05 08:56 | 43.41825 | -73.28878 | 38000 ft | 464 kts | 227° |
| 2026-05-05 08:56 | 43.37418 | -73.35383 | 38000 ft | 465 kts | 227° |
| 2026-05-05 08:57 | 43.33017 | -73.41865 | 38000 ft | 464 kts | 227° |
| 2026-05-05 08:57 | 43.28778 | -73.48093 | 38000 ft | 464 kts | 227° |
| 2026-05-05 08:58 | 43.24361 | -73.54559 | 37999 ft | 463 kts | 225° |
| 2026-05-05 08:58 | 43.19558 | -73.60447 | 38000 ft | 463 kts | 213° |
| 2026-05-05 08:58 | 43.16737 | -73.62486 | 38001 ft | 463 kts | 202° |
| 2026-05-05 08:59 | 43.13679 | -73.63938 | 38000 ft | 463 kts | 197° |
| 2026-05-05 08:59 | 43.07523 | -73.66515 | 38000 ft | 464 kts | 197° |
| 2026-05-05 09:00 | 43.01338 | -73.69115 | 38000 ft | 464 kts | 197° |
| 2026-05-05 09:00 | 42.95184 | -73.71710 | 38000 ft | 464 kts | 197° |
| 2026-05-05 09:01 | 42.88980 | -73.74325 | 38000 ft | 464 kts | 197° |
| 2026-05-05 09:01 | 42.82836 | -73.76910 | 38001 ft | 464 kts | 197° |
| 2026-05-05 09:02 | 42.76677 | -73.79497 | 38000 ft | 464 kts | 197° |
| 2026-05-05 09:02 | 42.70508 | -73.82166 | 38001 ft | 464 kts | 199° |
| 2026-05-05 09:03 | 42.64404 | -73.84935 | 38000 ft | 464 kts | 199° |
| 2026-05-05 09:03 | 42.58263 | -73.87697 | 38000 ft | 463 kts | 198° |
| 2026-05-05 09:04 | 42.52153 | -73.90432 | 38000 ft | 464 kts | 198° |
| 2026-05-05 09:04 | 42.46029 | -73.93165 | 38000 ft | 464 kts | 198° |
| 2026-05-05 09:05 | 42.39881 | -73.95903 | 38000 ft | 464 kts | 198° |
| 2026-05-05 09:05 | 42.33757 | -73.98624 | 38000 ft | 464 kts | 198° |
| 2026-05-05 09:06 | 42.27611 | -74.01349 | 38000 ft | 464 kts | 198° |
| 2026-05-05 09:06 | 42.21464 | -74.04076 | 37998 ft | 464 kts | 198° |
| 2026-05-05 09:07 | 42.15337 | -74.06782 | 37999 ft | 467 kts | 198° |
| 2026-05-05 09:07 | 42.09147 | -74.09508 | 38000 ft | 467 kts | 198° |
| 2026-05-05 09:07 | 42.06079 | -74.10858 | 37598 ft | 463 kts | 198° |
| 2026-05-05 09:08 | 42.03000 | -74.12214 | 36698 ft | 469 kts | 198° |
| 2026-05-05 09:08 | 41.99862 | -74.13589 | 35727 ft | 477 kts | 198° |
| 2026-05-05 09:08 | 41.96688 | -74.14979 | 34767 ft | 483 kts | 198° |
| 2026-05-05 09:08 | 41.93481 | -74.16382 | 33909 ft | 486 kts | 198° |
| 2026-05-05 09:09 | 41.90283 | -74.17896 | 33174 ft | 485 kts | 206° |
| 2026-05-05 09:09 | 41.87502 | -74.20361 | 32883 ft | 474 kts | 222° |
| 2026-05-05 09:09 | 41.85376 | -74.23670 | 32640 ft | 463 kts | 238° |
| 2026-05-05 09:09 | 41.83709 | -74.27260 | 32399 ft | 457 kts | 236° |
| 2026-05-05 09:10 | 41.81641 | -74.30493 | 32179 ft | 456 kts | 226° |
| 2026-05-05 09:10 | 41.79338 | -74.33413 | 31951 ft | 456 kts | 220° |
| 2026-05-05 09:10 | 41.76656 | -74.35682 | 31733 ft | 454 kts | 205° |
| 2026-05-05 09:10 | 41.73765 | -74.37402 | 31499 ft | 453 kts | 201° |
| 2026-05-05 09:11 | 41.70798 | -74.38701 | 31171 ft | 449 kts | 194° |
| 2026-05-05 09:11 | 41.67712 | -74.39564 | 30347 ft | 454 kts | 190° |
| 2026-05-05 09:11 | 41.64617 | -74.40240 | 29540 ft | 457 kts | 189° |
| 2026-05-05 09:11 | 41.61458 | -74.40884 | 28830 ft | 456 kts | 189° |
| 2026-05-05 09:12 | 41.58362 | -74.41501 | 27704 ft | 443 kts | 188° |
| 2026-05-05 09:12 | 41.55321 | -74.42100 | 26305 ft | 440 kts | 188° |
| 2026-05-05 09:12 | 41.52300 | -74.42691 | 24949 ft | 434 kts | 188° |
| 2026-05-05 09:12 | 41.49362 | -74.43264 | 23657 ft | 427 kts | 188° |
| 2026-05-05 09:13 | 41.46435 | -74.43834 | 22521 ft | 416 kts | 188° |
| 2026-05-05 09:13 | 41.43669 | -74.44371 | 22054 ft | 391 kts | 188° |
| 2026-05-05 09:13 | 41.41053 | -74.44878 | 21624 ft | 369 kts | 188° |
| 2026-05-05 09:13 | 41.38518 | -74.45369 | 21166 ft | 363 kts | 188° |
| 2026-05-05 09:14 | 41.36052 | -74.45847 | 20727 ft | 361 kts | 188° |
| 2026-05-05 09:14 | 41.33559 | -74.46326 | 20282 ft | 363 kts | 188° |
| 2026-05-05 09:14 | 41.31058 | -74.46809 | 19819 ft | 361 kts | 188° |
| 2026-05-05 09:14 | 41.28600 | -74.47284 | 19367 ft | 359 kts | 188° |
| 2026-05-05 09:15 | 41.26145 | -74.47746 | 19079 ft | 350 kts | 192° |
| 2026-05-05 09:15 | 41.23725 | -74.48213 | 18529 ft | 350 kts | 192° |
| 2026-05-05 09:15 | 41.21331 | -74.48679 | 17948 ft | 350 kts | 192° |
| 2026-05-05 09:15 | 41.18924 | -74.49145 | 17472 ft | 346 kts | 192° |
| 2026-05-05 09:16 | 41.16591 | -74.49595 | 17032 ft | 340 kts | 192° |
| 2026-05-05 09:16 | 41.14248 | -74.50045 | 16593 ft | 335 kts | 192° |
| 2026-05-05 09:16 | 41.11950 | -74.50486 | 16209 ft | 330 kts | 192° |
| 2026-05-05 09:16 | 41.09694 | -74.50919 | 15836 ft | 325 kts | 192° |
| 2026-05-05 09:17 | 41.07493 | -74.51342 | 15436 ft | 321 kts | 192° |
| 2026-05-05 09:17 | 41.05291 | -74.51764 | 15038 ft | 317 kts | 192° |
| 2026-05-05 09:17 | 41.03116 | -74.52181 | 14634 ft | 314 kts | 192° |
| 2026-05-05 09:17 | 41.00948 | -74.52596 | 14229 ft | 313 kts | 192° |
| 2026-05-05 09:18 | 40.98806 | -74.53006 | 13841 ft | 312 kts | 192° |
| 2026-05-05 09:18 | 40.96655 | -74.53418 | 13408 ft | 311 kts | 192° |
| 2026-05-05 09:18 | 40.94506 | -74.53827 | 13001 ft | 310 kts | 192° |
| 2026-05-05 09:18 | 40.92394 | -74.54229 | 12611 ft | 308 kts | 192° |
| 2026-05-05 09:19 | 40.90264 | -74.54636 | 12204 ft | 306 kts | 193° |
| 2026-05-05 09:19 | 40.88174 | -74.55035 | 11815 ft | 304 kts | 193° |
| 2026-05-05 09:19 | 40.86071 | -74.55436 | 11416 ft | 303 kts | 193° |
| 2026-05-05 09:19 | 40.84021 | -74.55821 | 11132 ft | 297 kts | 192° |
| 2026-05-05 09:20 | 40.81989 | -74.55956 | 11003 ft | 288 kts | 184° |
| 2026-05-05 09:20 | 40.80031 | -74.55872 | 10870 ft | 277 kts | 183° |
| 2026-05-05 09:20 | 40.78119 | -74.55759 | 10703 ft | 269 kts | 183° |
| 2026-05-05 09:20 | 40.76257 | -74.55655 | 10422 ft | 266 kts | 183° |
| 2026-05-05 09:21 | 40.74433 | -74.55557 | 10122 ft | 265 kts | 183° |
| 2026-05-05 09:21 | 40.72581 | -74.55427 | 9825 ft | 269 kts | 180° |
| 2026-05-05 09:21 | 40.70695 | -74.54753 | 9661 ft | 293 kts | 158° |
| 2026-05-05 09:21 | 40.69099 | -74.53029 | 9387 ft | 303 kts | 131° |
| 2026-05-05 09:22 | 40.68259 | -74.50478 | 8853 ft | 313 kts | 101° |
| 2026-05-05 09:22 | 40.68409 | -74.47637 | 8452 ft | 312 kts | 71° |
| 2026-05-05 09:22 | 40.69282 | -74.45038 | 8098 ft | 309 kts | 60° |
| 2026-05-05 09:22 | 40.70269 | -74.42561 | 7749 ft | 309 kts | 60° |
| 2026-05-05 09:23 | 40.71260 | -74.40057 | 7402 ft | 308 kts | 60° |
| 2026-05-05 09:23 | 40.72244 | -74.37529 | 7049 ft | 307 kts | 60° |
| 2026-05-05 09:23 | 40.73200 | -74.35046 | 6682 ft | 305 kts | 61° |
| 2026-05-05 09:23 | 40.74162 | -74.32533 | 6345 ft | 304 kts | 61° |
| 2026-05-05 09:24 | 40.75113 | -74.30038 | 5974 ft | 303 kts | 61° |
| 2026-05-05 09:24 | 40.76044 | -74.27597 | 5637 ft | 302 kts | 61° |
| 2026-05-05 09:24 | 40.76993 | -74.25098 | 5283 ft | 301 kts | 61° |
| 2026-05-05 09:24 | 40.77930 | -74.22627 | 4932 ft | 300 kts | 61° |
| 2026-05-05 09:25 | 40.78855 | -74.20183 | 4720 ft | 292 kts | 61° |
| 2026-05-05 09:25 | 40.79731 | -74.17862 | 4589 ft | 280 kts | 61° |
| 2026-05-05 09:25 | 40.80584 | -74.15604 | 4448 ft | 269 kts | 61° |
| 2026-05-05 09:25 | 40.81394 | -74.13453 | 4282 ft | 254 kts | 61° |
| 2026-05-05 09:26 | 40.82181 | -74.11374 | 4052 ft | 255 kts | 61° |
| 2026-05-05 09:26 | 40.82973 | -74.09279 | 3787 ft | 253 kts | 61° |
| 2026-05-05 09:26 | 40.83671 | -74.07146 | 3544 ft | 248 kts | 75° |
| 2026-05-05 09:26 | 40.83574 | -74.05008 | 3333 ft | 231 kts | 116° |
| 2026-05-05 09:27 | 40.82589 | -74.03510 | 3057 ft | 204 kts | 161° |
| 2026-05-05 09:27 | 40.81365 | -74.03353 | 3015 ft | 163 kts | 207° |
| 2026-05-05 09:27 | 40.80427 | -74.04061 | 2996 ft | 154 kts | 223° |
| 2026-05-05 09:27 | 40.79707 | -74.05086 | 2986 ft | 151 kts | 241° |
| 2026-05-05 09:28 | 40.79352 | -74.06384 | 2989 ft | 150 kts | 259° |
| 2026-05-05 09:28 | 40.79181 | -74.07722 | 2989 ft | 149 kts | 261° |
| 2026-05-05 09:28 | 40.79123 | -74.08234 | 2987 ft | 149 kts | 261° |
| 2026-05-05 09:28 | 40.79019 | -74.09362 | 2973 ft | 156 kts | 266° |
| 2026-05-05 09:29 | 40.79408 | -74.10811 | 2994 ft | 187 kts | 303° |
| 2026-05-05 09:29 | 40.80542 | -74.11788 | 2992 ft | 207 kts | 338° |
| 2026-05-05 09:29 | 40.82022 | -74.11761 | 2997 ft | 221 kts | 9° |
| 2026-05-05 09:29 | 40.83483 | -74.11056 | 2991 ft | 226 kts | 17° |
| 2026-05-05 09:30 | 40.84914 | -74.10219 | 2989 ft | 227 kts | 18° |
| 2026-05-05 09:30 | 40.86356 | -74.09360 | 2987 ft | 227 kts | 18° |
| 2026-05-05 09:30 | 40.87796 | -74.08501 | 2989 ft | 228 kts | 18° |
| 2026-05-05 09:30 | 40.89248 | -74.07627 | 2989 ft | 228 kts | 18° |
| 2026-05-05 09:31 | 40.90697 | -74.06759 | 2989 ft | 228 kts | 18° |
| 2026-05-05 09:31 | 40.92148 | -74.05892 | 2986 ft | 229 kts | 18° |
| 2026-05-05 09:31 | 40.93586 | -74.05037 | 2990 ft | 227 kts | 17° |
| 2026-05-05 09:31 | 40.95095 | -74.04630 | 2993 ft | 218 kts | 348° |
| 2026-05-05 09:32 | 40.96444 | -74.05278 | 2989 ft | 199 kts | 314° |
| 2026-05-05 09:32 | 40.97545 | -74.06383 | 2973 ft | 206 kts | 328° |
| 2026-05-05 09:32 | 40.99004 | -74.06649 | 2987 ft | 217 kts | 356° |
| 2026-05-05 09:32 | 41.00514 | -74.06445 | 2987 ft | 221 kts | 359° |
| 2026-05-05 09:33 | 41.02052 | -74.06208 | 2985 ft | 221 kts | 359° |
| 2026-05-05 09:33 | 41.03577 | -74.05986 | 2982 ft | 220 kts | 359° |
| 2026-05-05 09:33 | 41.05077 | -74.06076 | 2985 ft | 212 kts | 339° |
| 2026-05-05 09:33 | 41.06472 | -74.06642 | 2988 ft | 208 kts | 332° |
| 2026-05-05 09:34 | 41.07755 | -74.07420 | 2982 ft | 202 kts | 320° |
| 2026-05-05 09:34 | 41.08755 | -74.08658 | 2977 ft | 192 kts | 298° |
| 2026-05-05 09:34 | 41.09206 | -74.10273 | 2984 ft | 184 kts | 272° |
| 2026-05-05 09:34 | 41.08985 | -74.11900 | 2992 ft | 184 kts | 245° |
| 2026-05-05 09:35 | 41.08131 | -74.13166 | 2987 ft | 189 kts | 217° |
| 2026-05-05 09:35 | 41.05489 | -74.13894 | 2990 ft | 204 kts | 185° |
| 2026-05-05 09:35 | 41.04062 | -74.13690 | 2986 ft | 208 kts | 179° |
| 2026-05-05 09:36 | 41.02625 | -74.13349 | 2987 ft | 209 kts | 177° |
| 2026-05-05 09:36 | 41.01216 | -74.12969 | 2990 ft | 209 kts | 176° |
| 2026-05-05 09:36 | 40.99792 | -74.12566 | 2991 ft | 209 kts | 175° |
| 2026-05-05 09:36 | 40.98360 | -74.12151 | 2989 ft | 209 kts | 175° |
| 2026-05-05 09:37 | 40.96941 | -74.11732 | 2985 ft | 208 kts | 175° |
| 2026-05-05 09:37 | 40.95590 | -74.11323 | 2974 ft | 194 kts | 175° |
| 2026-05-05 09:37 | 40.94318 | -74.10935 | 2968 ft | 181 kts | 176° |
| 2026-05-05 09:37 | 40.93096 | -74.10571 | 2984 ft | 179 kts | 176° |
| 2026-05-05 09:38 | 40.91885 | -74.10216 | 2985 ft | 178 kts | 176° |
| 2026-05-05 09:38 | 40.90692 | -74.09865 | 2988 ft | 178 kts | 176° |
| 2026-05-05 09:38 | 40.89481 | -74.09509 | 2989 ft | 179 kts | 176° |
| 2026-05-05 09:38 | 40.88214 | -74.09141 | 2997 ft | 191 kts | 176° |
| 2026-05-05 09:39 | 40.87348 | -74.08886 | 2991 ft | 193 kts | 175° |
| 2026-05-05 09:39 | 40.86026 | -74.08492 | 2989 ft | 194 kts | 175° |
| 2026-05-05 09:39 | 40.84272 | -74.07995 | 2983 ft | 192 kts | 179° |
| 2026-05-05 09:39 | 40.83399 | -74.07970 | 2973 ft | 187 kts | 192° |
| 2026-05-05 09:40 | 40.82224 | -74.08481 | 2815 ft | 170 kts | 216° |
| 2026-05-05 09:40 | 40.81242 | -74.09214 | 2554 ft | 155 kts | 214° |
| 2026-05-05 09:40 | 40.80312 | -74.09814 | 2336 ft | 143 kts | 210° |
| 2026-05-05 09:40 | 40.79461 | -74.10336 | 2137 ft | 129 kts | 213° |
| 2026-05-05 09:41 | 40.78664 | -74.10847 | 1897 ft | 126 kts | 212° |
| 2026-05-05 09:41 | 40.77885 | -74.11335 | 1705 ft | 123 kts | 211° |
| 2026-05-05 09:41 | 40.77128 | -74.11793 | 1581 ft | 121 kts | 211° |
| 2026-05-05 09:41 | 40.76375 | -74.12301 | 1436 ft | 121 kts | 214° |
| 2026-05-05 09:42 | 40.75631 | -74.12809 | 1262 ft | 122 kts | 212° |
| 2026-05-05 09:42 | 40.74860 | -74.13290 | 1105 ft | 122 kts | 210° |
| 2026-05-05 09:42 | 40.74103 | -74.13792 | 948 ft | 123 kts | 209° |
| 2026-05-05 09:42 | 40.73319 | -74.14272 | 802 ft | 125 kts | 210° |
| 2026-05-05 09:43 | 40.72524 | -74.14786 | 637 ft | 129 kts | 207° |
| 2026-05-05 09:43 | 40.71712 | -74.15282 | 427 ft | 128 kts | 205° |
| 2026-05-05 09:43 | 40.70924 | -74.15792 | 281 ft | 127 kts | 208° |
| 2026-05-05 09:43 | 40.70122 | -74.16295 | 115 ft | 127 kts | 207° |
| 2026-05-05 09:44 | 40.69347 | -74.16797 | 30 ft | 116 kts | 205° |
| 2026-05-05 09:44 | 40.68852 | -74.17110 | 29 ft | 37 kts | 205° |
| 2026-05-05 09:44 | 40.68697 | -74.17218 | 30 ft | 20 kts | 225° |
| 2026-05-05 09:44 | 40.68690 | -74.17329 | 30 ft | 7 kts | 294° |
| 2026-05-05 09:45 | 40.68691 | -74.17331 | 30 ft | 0 kts | 294° |
| 2026-05-05 09:45 | 40.68693 | -74.17338 | 30 ft | 2 kts | 294° |
| 2026-05-05 09:46 | 40.68706 | -74.17376 | 29 ft | 7 kts | 294° |
| 2026-05-05 09:46 | 40.68736 | -74.17442 | 29 ft | 7 kts | 322° |
| 2026-05-05 09:46 | 40.68767 | -74.17440 | 29 ft | 5 kts | 18° |
| 2026-05-05 09:46 | 40.68807 | -74.17418 | 28 ft | 8 kts | 24° |
| 2026-05-05 09:47 | 40.68872 | -74.17378 | 28 ft | 12 kts | 26° |
| 2026-05-05 09:47 | 40.68957 | -74.17321 | 28 ft | 16 kts | 27° |
| 2026-05-05 09:47 | 40.69061 | -74.17256 | 28 ft | 18 kts | 25° |
| 2026-05-05 09:47 | 40.69145 | -74.17209 | 28 ft | 0 kts | 6° |
| 2026-05-05 09:48 | 40.69147 | -74.17209 | 28 ft | 0 kts | 6° |
| 2026-05-05 09:49 | 40.69148 | -74.17209 | 28 ft | 0 kts | 4° |
| 2026-05-05 09:50 | 40.69160 | -74.17216 | 28 ft | 7 kts | 335° |
| 2026-05-05 09:50 | 40.69184 | -74.17292 | 28 ft | 10 kts | 277° |
| 2026-05-05 09:50 | 40.69186 | -74.17317 | 28 ft | 0 kts | 276° |
| 2026-05-05 09:50 | 40.69187 | -74.17328 | 28 ft | 0 kts | 276° |